M I D A S
Marine Information and Data Acquisition System
Tripno 1229 of the Zeeleeuw from 2007-03-12 08:05:23 to 2007-03-12 13:45:51
Back to CruiseResearch ActivitiesStationsMapUnderway DataData graphs

EquipmentUnitsComment
TimeDGPSUTC
LatitudeDGPSDM.mWGS84
LongitudeDGPSDM.mWGS84
TemperatureSBE03/SBE38deg celciusITS90
ConductivitySBE21S/mITS90
SalinitySBE21 Practical Salinity Units
ChlorophylAChelsea fluorimeterg/lCalibrated in Aceton
Missing or incorrect values are displayed as -999
Sea surface data collected by the RV Zeeleeuw from 2007-03-12 07:47:02 to 2007-03-12 13:55:59
                                                                                    Next 1000 lines
Time Latitude Longitude Temperature Conductivity Salinity ChlorophylA
2007-03-12 07:47:11 51°13.597 2°56.094 18.5936 0.000358 0.01187 -2.871232
2007-03-12 07:47:17 51°13.597 2°56.094 18.5923 0.000358 0.011869 -2.871232
2007-03-12 07:47:21 51°13.597 2°56.094 18.5839 0.000358 0.011868 -2.871232
2007-03-12 07:47:26 51°13.597 2°56.094 18.5773 0.000358 0.011867 -2.871232
2007-03-12 07:47:31 51°13.597 2°56.094 18.5731 0.000358 0.011867 -2.871232
2007-03-12 07:47:36 51°13.597 2°56.094 18.57 0.000358 0.011866 -2.871232
2007-03-12 07:47:41 51°13.597 2°56.094 18.5815 0.000358 0.011865 -2.871232
2007-03-12 07:47:46 51°13.597 2°56.094 18.5594 0.000358 0.011864 -2.871232
2007-03-12 07:47:51 51°13.597 2°56.095 18.5641 0.000358 0.011863 -2.871232
2007-03-12 07:47:56 51°13.597 2°56.095 18.5636 0.000358 0.011861 -2.871232
2007-03-12 07:48:01 51°13.597 2°56.095 18.5661 0.000358 0.01186 -2.871232
2007-03-12 07:48:06 51°13.597 2°56.096 18.5729 0.000358 0.01186 -2.871232
2007-03-12 07:48:11 51°13.597 2°56.096 18.5809 0.000358 0.011859 -2.871232
2007-03-12 07:48:16 51°13.597 2°56.096 18.5718 0.000358 0.011858 -2.871232
2007-03-12 07:48:21 51°13.597 2°56.096 18.5694 0.000358 0.011857 -2.871232
2007-03-12 07:48:26 51°13.597 2°56.096 18.5302 0.000358 0.011856 -2.871232
2007-03-12 07:48:32 51°13.597 2°56.096 18.5385 0.000358 0.011855 -2.871232
2007-03-12 07:48:37 51°13.597 2°56.096 18.5137 0.000358 0.011855 -2.871232
2007-03-12 07:48:42 51°13.597 2°56.096 18.5345 0.000358 0.011854 -2.871232
2007-03-12 07:48:47 51°13.597 2°56.096 18.5355 0.000358 0.011852 -2.871232
2007-03-12 07:48:52 51°13.597 2°56.096 18.5517 0.000358 0.011851 -2.871232
2007-03-12 07:48:57 51°13.597 2°56.095 18.5576 0.000358 0.01185 -2.871232
2007-03-12 07:49:02 51°13.597 2°56.095 18.5537 0.000358 0.01185 -2.871232
2007-03-12 07:49:07 51°13.597 2°56.095 18.549 0.000358 0.011849 -2.871232
2007-03-12 07:49:12 51°13.597 2°56.095 18.546 0.000358 0.011848 -2.871232
2007-03-12 07:49:17 51°13.597 2°56.095 18.5456 0.000358 0.011846 -2.871232
2007-03-12 07:49:22 51°13.597 2°56.095 18.5515 0.000358 0.011845 -2.871232
2007-03-12 07:49:27 51°13.597 2°56.095 18.5414 0.000358 0.011844 -2.871232
2007-03-12 07:49:31 51°13.597 2°56.095 18.5339 0.000358 0.011844 -2.871232
2007-03-12 07:49:37 51°13.597 2°56.095 18.5352 0.000358 0.011843 -2.871232
2007-03-12 07:49:42 51°13.597 2°56.094 18.5548 0.000358 0.011842 -2.871232
2007-03-12 07:49:46 51°13.597 2°56.093 18.5632 0.000358 0.01184 -2.871232
2007-03-12 07:49:51 51°13.598 2°56.091 18.486 0.000358 0.01184 -2.871232
2007-03-12 07:49:56 51°13.598 2°56.09 18.5331 0.000358 0.011837 -2.871232
2007-03-12 07:50:01 51°13.599 2°56.088 18.5048 0.000358 0.011837 -2.871232
2007-03-12 07:50:06 51°13.6 2°56.085 18.4986 0.000358 0.011837 -2.871232
2007-03-12 07:50:11 51°13.601 2°56.082 18.4995 0.000358 0.011835 -2.871232
2007-03-12 07:50:16 51°13.602 2°56.078 18.505 0.000358 0.011834 -2.871232
2007-03-12 07:50:22 51°13.603 2°56.073 18.4976 0.000358 0.011833 -2.871232
2007-03-12 07:50:27 51°13.604 2°56.069 18.4919 0.000358 0.011831 -2.871232
2007-03-12 07:50:32 51°13.605 2°56.063 18.4791 0.000358 0.011831 -2.871232
2007-03-12 07:50:37 51°13.607 2°56.057 18.4774 0.000358 0.01183 -2.871232
2007-03-12 07:50:42 51°13.608 2°56.051 18.493 0.000358 0.011829 -2.871232
2007-03-12 07:50:47 51°13.61 2°56.044 18.475 0.000358 0.011827 -2.871232
2007-03-12 07:50:52 51°13.612 2°56.037 18.5069 0.000358 0.011826 -2.871232
2007-03-12 07:50:57 51°13.613 2°56.031 18.4911 0.000358 0.011826 -2.871232
2007-03-12 07:51:02 51°13.615 2°56.024 18.5078 0.000358 0.011826 -2.871232
2007-03-12 07:51:07 51°13.617 2°56.016 18.4986 0.000358 0.011824 -2.871232
2007-03-12 07:51:12 51°13.619 2°56.009 18.4901 0.000358 0.011823 -2.871232
2007-03-12 07:51:17 51°13.621 2°56.002 18.4645 0.000358 0.011822 -2.871232
2007-03-12 07:51:22 51°13.622 2°55.995 18.4537 0.000358 0.011821 -2.871232
2007-03-12 07:51:27 51°13.624 2°55.988 18.4466 0.000358 0.01182 -2.871232
2007-03-12 07:51:32 51°13.626 2°55.98 18.4611 0.000358 0.01182 -2.871232
2007-03-12 07:51:37 51°13.628 2°55.973 18.4861 0.000358 0.011819 -2.871232
2007-03-12 07:51:42 51°13.63 2°55.965 18.4743 0.000358 0.011818 -2.871232
2007-03-12 07:51:47 51°13.632 2°55.958 18.4808 0.000358 0.011817 -2.871232
2007-03-12 07:51:52 51°13.634 2°55.951 18.4799 0.000358 0.011816 -2.871232
2007-03-12 07:51:58 51°13.636 2°55.942 18.4914 0.000358 0.011815 -2.871232
2007-03-12 07:52:02 51°13.638 2°55.936 18.489 0.000358 0.011814 -2.871232
2007-03-12 07:52:07 51°13.64 2°55.929 18.479 0.000358 0.011814 -2.871232
2007-03-12 07:52:12 51°13.643 2°55.922 18.4735 0.000358 0.011813 -2.871232
2007-03-12 07:52:17 51°13.645 2°55.914 18.4581 0.000358 0.011812 -2.871232
2007-03-12 07:52:22 51°13.647 2°55.907 18.4514 0.000358 0.011811 -2.871232
2007-03-12 07:52:27 51°13.649 2°55.9 18.4419 0.000358 0.01181 -2.871232
2007-03-12 07:52:32 51°13.651 2°55.893 18.4598 0.000358 0.011809 -2.871232
2007-03-12 07:52:37 51°13.653 2°55.886 18.4619 0.000358 0.011809 -2.871232
2007-03-12 07:52:42 51°13.655 2°55.879 18.4585 0.000358 0.011808 -2.871232
2007-03-12 07:52:47 51°13.657 2°55.872 18.435 0.000358 0.011807 -2.871232
2007-03-12 07:52:52 51°13.659 2°55.866 18.4317 0.000358 0.011806 -2.871232
2007-03-12 07:52:57 51°13.661 2°55.859 18.4364 0.000358 0.011806 -2.871232
2007-03-12 07:53:02 51°13.662 2°55.852 18.448 0.000358 0.011806 -2.871232
2007-03-12 07:53:07 51°13.664 2°55.845 18.4444 0.000358 0.011805 -2.871232
2007-03-12 07:53:12 51°13.666 2°55.838 18.4324 0.000358 0.011804 -2.871232
2007-03-12 07:53:17 51°13.668 2°55.831 18.4223 0.000358 0.011803 -2.871232
2007-03-12 07:53:22 51°13.669 2°55.824 18.4274 0.000358 0.011802 -2.871232
2007-03-12 07:53:27 51°13.67 2°55.818 18.4323 0.000358 0.011801 -2.871232
2007-03-12 07:53:32 51°13.671 2°55.811 18.4323 0.000358 0.011801 -2.871232
2007-03-12 07:53:37 51°13.672 2°55.804 18.4307 0.000358 0.011801 -2.871232
2007-03-12 07:53:42 51°13.673 2°55.797 18.4057 0.000358 0.0118 -2.871232
2007-03-12 07:53:47 51°13.673 2°55.79 18.415 0.000358 0.011799 -2.871232
2007-03-12 07:53:52 51°13.674 2°55.784 18.4147 0.000358 0.011798 -2.871232
2007-03-12 07:53:57 51°13.674 2°55.778 18.4113 0.000358 0.011798 -2.871232
2007-03-12 07:54:02 51°13.674 2°55.772 18.3656 0.000358 0.011797 -2.871232
2007-03-12 07:54:07 51°13.675 2°55.766 18.3522 0.000358 0.011797 -2.871232
2007-03-12 07:54:11 51°13.675 2°55.761 18.351 0.000358 0.011796 -2.871232
2007-03-12 07:54:16 51°13.675 2°55.757 18.3566 0.000358 0.011796 -2.871232
2007-03-12 07:54:21 51°13.675 2°55.754 18.3355 0.000358 0.011795 -2.871232
2007-03-12 07:54:26 51°13.676 2°55.752 18.3309 0.000358 0.011793 -2.871232
2007-03-12 07:54:31 51°13.676 2°55.751 18.3233 0.000358 0.011793 -2.871232
2007-03-12 07:54:36 51°13.676 2°55.751 18.3194 0.000358 0.011793 -2.871232
2007-03-12 07:54:41 51°13.677 2°55.751 18.317 0.000358 0.011792 -2.871232
2007-03-12 07:54:46 51°13.678 2°55.753 18.3086 0.000358 0.011791 -2.871232
2007-03-12 07:54:51 51°13.679 2°55.755 18.2626 0.000358 0.01179 -2.871232
2007-03-12 07:54:56 51°13.68 2°55.757 18.211 0.000358 0.011789 -2.871232
2007-03-12 07:55:00 51°13.682 2°55.759 18.2106 0.000358 0.011789 -2.871232
2007-03-12 07:55:06 51°13.685 2°55.762 18.2658 0.000358 0.011789 -2.871232
2007-03-12 07:55:10 51°13.687 2°55.764 18.2462 0.000358 0.011788 -2.871232
2007-03-12 07:55:15 51°13.69 2°55.766 18.2458 0.000358 0.011787 -2.871232
2007-03-12 07:55:20 51°13.693 2°55.767 18.2292 0.000358 0.011786 -2.871232
2007-03-12 07:55:25 51°13.696 2°55.769 18.2557 0.000358 0.011786 -2.871232
2007-03-12 07:55:30 51°13.699 2°55.769 18.3201 0.000358 0.011785 -2.871232
2007-03-12 07:55:32 51°13.701 2°55.769 18.3039 0.000358 0.011785 -2.871232
2007-03-12 07:55:39 51°13.704 2°55.769 18.2596 0.000358 0.011785 -2.871232
2007-03-12 07:55:45 51°13.707 2°55.768 18.2829 0.000358 0.011784 -2.871232
2007-03-12 07:55:50 51°13.708 2°55.767 18.2787 0.000358 0.011784 -2.871232
2007-03-12 07:55:55 51°13.709 2°55.765 18.284 0.000358 0.011784 -2.871232
2007-03-12 07:56:00 51°13.709 2°55.764 18.2914 0.000358 0.011783 -2.871232
2007-03-12 07:56:05 51°13.709 2°55.763 18.3499 0.000358 0.011783 -2.871232
2007-03-12 07:56:10 51°13.709 2°55.763 18.2668 0.000358 0.011784 -2.871232
2007-03-12 07:56:15 51°13.708 2°55.762 18.2747 0.000358 0.011783 -2.871232
2007-03-12 07:56:20 51°13.707 2°55.762 18.2354 0.000358 0.011782 -2.871232
2007-03-12 07:56:25 51°13.707 2°55.761 18.2677 0.000358 0.011783 -2.871232
2007-03-12 07:56:30 51°13.707 2°55.76 18.2511 0.000358 0.011783 -2.871232
2007-03-12 07:56:35 51°13.707 2°55.759 18.2576 0.000358 0.011783 -2.871232
2007-03-12 07:56:40 51°13.708 2°55.757 18.2074 0.000358 0.011782 -2.871232
2007-03-12 07:56:45 51°13.709 2°55.755 18.2289 0.000358 0.011782 -2.871232
2007-03-12 07:56:50 51°13.711 2°55.753 18.2281 0.000358 0.011781 -2.871232
2007-03-12 07:56:55 51°13.714 2°55.75 18.2007 0.000358 0.011781 -2.871232
2007-03-12 07:57:00 51°13.718 2°55.746 18.1998 0.000358 0.011781 -2.871232
2007-03-12 07:57:05 51°13.722 2°55.742 18.1984 0.000358 0.011781 -2.871232
2007-03-12 07:57:09 51°13.725 2°55.739 18.2045 0.000358 0.01178 -2.871232
2007-03-12 07:57:14 51°13.73 2°55.734 18.2565 0.000358 0.01178 -2.871232
2007-03-12 07:57:19 51°13.735 2°55.729 18.2629 0.000358 0.01178 -2.871232
2007-03-12 07:57:24 51°13.74 2°55.724 18.2736 0.000358 0.011779 -2.871232
2007-03-12 07:57:29 51°13.746 2°55.718 18.2521 0.000358 0.011779 -2.871232
2007-03-12 07:57:34 51°13.752 2°55.712 18.2874 0.000358 0.011779 -2.871232
2007-03-12 07:57:39 51°13.759 2°55.706 18.2586 0.000358 0.011779 -2.871232
2007-03-12 07:57:44 51°13.765 2°55.7 18.2551 0.000358 0.011778 -2.871232
2007-03-12 07:57:49 51°13.772 2°55.693 18.2469 0.000358 0.011778 -2.871232
2007-03-12 07:57:54 51°13.779 2°55.686 18.2416 0.000358 0.011778 -2.871232
2007-03-12 07:57:59 51°13.786 2°55.68 18.2619 0.000358 0.011778 -2.871232
2007-03-12 07:58:03 51°13.792 2°55.674 18.2567 0.000358 0.011777 -2.871232
2007-03-12 07:58:08 51°13.8 2°55.667 18.2408 0.000358 0.011777 -2.871232
2007-03-12 07:58:14 51°13.809 2°55.659 18.2205 0.000358 0.011776 -2.871232
2007-03-12 07:58:19 51°13.816 2°55.652 18.2178 0.000358 0.011776 -2.871232
2007-03-12 07:58:24 51°13.824 2°55.645 18.2466 0.000358 0.011776 -2.871232
2007-03-12 07:58:28 51°13.831 2°55.639 18.2682 0.000358 0.011776 -2.871232
2007-03-12 07:58:34 51°13.841 2°55.631 18.2881 0.000358 0.011775 -2.871232
2007-03-12 07:58:39 51°13.849 2°55.624 18.2699 0.000358 0.011775 -2.871232
2007-03-12 07:58:44 51°13.858 2°55.617 18.2698 0.000358 0.011774 -2.871232
2007-03-12 07:58:48 51°13.865 2°55.612 18.2722 0.000358 0.011774 -2.871232
2007-03-12 07:58:54 51°13.875 2°55.604 18.2578 0.000358 0.011774 -2.871232
2007-03-12 07:58:59 51°13.884 2°55.597 18.2552 0.000358 0.011774 -2.871232
2007-03-12 07:59:04 51°13.893 2°55.59 18.2516 0.000358 0.011774 -2.871232
2007-03-12 07:59:09 51°13.903 2°55.583 18.2782 0.000358 0.011773 -2.871232
2007-03-12 07:59:14 51°13.912 2°55.576 18.2873 0.000358 0.011773 -2.871232
2007-03-12 07:59:19 51°13.921 2°55.57 18.296 0.000358 0.011773 -2.871232
2007-03-12 07:59:24 51°13.93 2°55.563 18.2607 0.000358 0.011772 -2.871232
2007-03-12 07:59:28 51°13.938 2°55.558 18.2481 0.000358 0.011772 -2.871232
2007-03-12 07:59:34 51°13.949 2°55.549 18.2813 0.000358 0.011772 -2.871232
2007-03-12 07:59:39 51°13.958 2°55.542 18.2485 0.000358 0.011772 -2.871232
2007-03-12 07:59:44 51°13.967 2°55.536 18.252 0.000358 0.011772 -2.871232
2007-03-12 07:59:49 51°13.976 2°55.529 18.2278 0.000358 0.011772 -2.871232
2007-03-12 07:59:54 51°13.986 2°55.522 18.2297 0.000358 0.011771 -2.871232
2007-03-12 07:59:59 51°13.995 2°55.515 18.2329 0.000358 0.011771 -2.871232
2007-03-12 08:00:04 51°14.004 2°55.509 18.2246 0.000358 0.011771 -2.871232
2007-03-12 08:00:09 51°14.014 2°55.502 18.2118 0.000358 0.011771 -2.871232
2007-03-12 08:00:14 51°14.023 2°55.496 18.1943 0.000358 0.01177 -2.871232
2007-03-12 08:00:19 51°14.032 2°55.489 18.1816 0.000358 0.01177 -2.871232
2007-03-12 08:00:23 51°14.04 2°55.484 18.2007 0.000358 0.01177 -2.871232
2007-03-12 08:00:28 51°14.049 2°55.477 18.1953 0.000358 0.01177 -2.871232
2007-03-12 08:00:34 51°14.06 2°55.469 18.2289 0.000358 0.01177 -2.871232
2007-03-12 08:00:39 51°14.07 2°55.462 18.2141 0.000358 0.01177 -2.871232
2007-03-12 08:00:44 51°14.079 2°55.455 18.2095 0.000358 0.011769 -2.871232
2007-03-12 08:00:48 51°14.086 2°55.449 18.2014 0.000358 0.011769 -2.871232
2007-03-12 08:00:54 51°14.097 2°55.44 18.221 0.000358 0.011769 -2.871232
2007-03-12 08:00:59 51°14.106 2°55.434 18.2386 0.000358 0.011769 -2.871232
2007-03-12 08:01:04 51°14.115 2°55.427 18.2006 0.000358 0.011769 -2.871232
2007-03-12 08:01:08 51°14.123 2°55.421 18.1924 0.000358 0.011767 -2.871232
2007-03-12 08:01:14 51°14.133 2°55.412 18.1539 0.000358 0.011767 -2.871232
2007-03-12 08:01:19 51°14.142 2°55.404 18.2 0.000358 0.011767 -2.871232
2007-03-12 08:01:24 51°14.151 2°55.396 18.194 0.000358 0.011767 -2.871232
2007-03-12 08:01:29 51°14.16 2°55.388 18.1757 0.000358 0.011767 -2.871232
2007-03-12 08:01:34 51°14.169 2°55.38 18.143 0.000358 0.011766 -2.871232
2007-03-12 08:01:39 51°14.178 2°55.371 18.1325 0.000358 0.011766 -2.871232
2007-03-12 08:01:44 51°14.187 2°55.363 18.1253 0.000358 0.011765 -2.871232
2007-03-12 08:01:48 51°14.194 2°55.355 18.1479 0.000358 0.011765 -2.871232
2007-03-12 08:01:54 51°14.205 2°55.343 18.1434 0.000358 0.011765 -2.871232
2007-03-12 08:01:59 51°14.214 2°55.332 18.1256 0.000358 0.011765 -2.871232
2007-03-12 08:02:03 51°14.221 2°55.323 18.0878 0.000358 0.011764 -2.871232
2007-03-12 08:02:09 51°14.232 2°55.309 18.1118 0.000358 0.011764 -2.871232
2007-03-12 08:02:14 51°14.241 2°55.296 18.1068 0.000358 0.011764 -2.871232
2007-03-12 08:02:19 51°14.25 2°55.283 18.0743 0.000358 0.011763 -2.871232
2007-03-12 08:02:24 51°14.258 2°55.269 18.0564 0.000358 0.011763 -2.871232
2007-03-12 08:02:29 51°14.267 2°55.254 18.1131 0.000358 0.011762 -2.871232
2007-03-12 08:02:34 51°14.275 2°55.239 18.1464 0.000358 0.011762 -2.871232
2007-03-12 08:02:39 51°14.284 2°55.224 18.1231 0.000358 0.011762 -2.871232
2007-03-12 08:02:43 51°14.291 2°55.211 18.1156 0.000358 0.011762 -2.871232
2007-03-12 08:02:48 51°14.3 2°55.195 18.099 0.000358 0.011762 -2.871232
2007-03-12 08:02:54 51°14.31 2°55.175 18.1263 0.000358 0.011762 -2.871232
2007-03-12 08:02:59 51°14.318 2°55.159 18.1026 0.000358 0.011761 -2.871232
2007-03-12 08:03:04 51°14.327 2°55.141 18.1523 0.000358 0.011761 -2.871232
2007-03-12 08:03:09 51°14.336 2°55.123 18.1295 0.000358 0.011761 -2.871232
2007-03-12 08:03:14 51°14.345 2°55.105 18.1641 0.000358 0.011761 -2.871232
2007-03-12 08:03:19 51°14.354 2°55.087 18.0537 0.000358 0.011761 -2.871232
2007-03-12 08:03:23 51°14.362 2°55.072 18.0742 0.000358 0.01176 -2.871232
2007-03-12 08:03:29 51°14.373 2°55.049 18.04 0.000358 0.01176 -2.871232
2007-03-12 08:03:34 51°14.381 2°55.028 18.0306 0.000358 0.01176 -2.871232
2007-03-12 08:03:39 51°14.389 2°55.007 18.0295 0.000358 0.011759 -2.871232
2007-03-12 08:03:44 51°14.397 2°54.985 18.0822 0.000358 0.011759 -2.871232
2007-03-12 08:03:49 51°14.404 2°54.962 18.0862 0.000358 0.011758 -2.871232
2007-03-12 08:03:54 51°14.411 2°54.939 18.0842 0.000358 0.011758 -2.871232
2007-03-12 08:03:59 51°14.418 2°54.915 18.0537 0.000358 0.011758 -2.871232
2007-03-12 08:04:04 51°14.425 2°54.89 18.0439 0.000358 0.011757 -2.871232
2007-03-12 08:04:09 51°14.431 2°54.864 18.0244 0.000358 0.011757 -2.871232
2007-03-12 08:04:14 51°14.436 2°54.839 18.0166 0.000358 0.011756 -2.871232
2007-03-12 08:04:19 51°14.441 2°54.812 18.0045 0.000358 0.011756 -2.871232
2007-03-12 08:04:24 51°14.445 2°54.785 17.9929 0.000358 0.011756 -2.871232
2007-03-12 08:04:29 51°14.448 2°54.757 17.9928 0.000358 0.011755 -2.871232
2007-03-12 08:04:34 51°14.45 2°54.729 14.9843 0.000358 0.011755 -2.871232
2007-03-12 08:04:39 51°14.452 2°54.701 11.0673 0.000358 0.011743 -2.871232
2007-03-12 08:04:44 51°14.452 2°54.673 10.465 0.000358 0.011737 -2.871232
2007-03-12 08:04:49 51°14.451 2°54.644 9.9621 0.240976 1.267673 -2.871232
2007-03-12 08:04:54 51°14.449 2°54.615 9.6849 0.913248 5.172684 -2.871232
2007-03-12 08:04:59 51°14.446 2°54.586 9.5798 0.913248 5.172684 -2.871232
2007-03-12 08:05:04 51°14.442 2°54.558 9.466 2.812866 18.398368 -2.871232
2007-03-12 08:05:08 51°14.438 2°54.535 9.3708 2.496284 17.539811 -2.871232
2007-03-12 08:05:14 51°14.432 2°54.501 9.3226 3.204367 24.509519 -2.871232
2007-03-12 08:05:19 51°14.425 2°54.474 9.2972 3.372802 27.233514 -2.871232
2007-03-12 08:05:24 51°14.417 2°54.447 9.3224 3.432351 28.724831 -2.871232
2007-03-12 08:05:28 51°14.411 2°54.425 9.4655 3.432351 28.724831 -2.871232
2007-03-12 08:05:34 51°14.402 2°54.392 9.331 3.440229 29.358163 -2.871232
2007-03-12 08:05:39 51°14.394 2°54.366 9.2624 3.451002 29.768768 -2.871232
2007-03-12 08:05:44 51°14.386 2°54.339 9.2538 3.450074 29.98627 -2.871232
2007-03-12 08:05:48 51°14.379 2°54.317 9.2859 3.445934 30.09181 -2.871232
2007-03-12 08:05:54 51°14.369 2°54.285 9.1854 3.417666 29.888477 -2.871232
2007-03-12 08:05:59 51°14.361 2°54.258 9.2023 3.43703 30.109847 -2.871232
2007-03-12 08:06:04 51°14.352 2°54.231 9.2107 3.43703 30.109847 -2.871232
2007-03-12 08:06:09 51°14.343 2°54.205 9.1968 3.434338 30.134496 -2.871232
2007-03-12 08:06:14 51°14.333 2°54.179 9.1396 3.452357 30.363545 -2.871232
2007-03-12 08:06:19 51°14.324 2°54.153 9.1509 3.453807 30.42442 -2.871232
2007-03-12 08:06:24 51°14.314 2°54.127 9.1105 3.460642 30.525444 -2.871232
2007-03-12 08:06:29 51°14.305 2°54.101 9.123 3.400896 29.972046 -2.871232
2007-03-12 08:06:34 51°14.295 2°54.075 9.1364 3.400896 29.972046 -2.871232
2007-03-12 08:06:38 51°14.288 2°54.054 9.1381 3.444489 30.414262 -2.871232
2007-03-12 08:06:44 51°14.277 2°54.023 9.127 3.449356 30.493031 -2.871232
2007-03-12 08:06:49 51°14.267 2°53.997 9.1349 3.460747 30.640055 -2.871232
2007-03-12 08:06:54 51°14.258 2°53.97 9.1331 3.454741 30.60513 -2.871232
2007-03-12 08:06:59 51°14.249 2°53.944 9.1362 3.454741 30.60513 -2.871232
2007-03-12 08:07:03 51°14.241 2°53.923 9.1335 3.456502 30.640114 -2.871232
2007-03-12 08:07:09 51°14.23 2°53.892 9.131 3.477627 30.85769 -2.871232
2007-03-12 08:07:14 51°14.221 2°53.866 9.1457 3.486948 30.957614 -2.871232
2007-03-12 08:07:19 51°14.212 2°53.84 9.1379 3.461784 30.716246 -2.871232
2007-03-12 08:07:24 51°14.202 2°53.813 9.1215 3.501136 31.102361 -2.871232
2007-03-12 08:07:28 51°14.195 2°53.792 9.1532 3.501136 31.102361 -2.871232
2007-03-12 08:07:34 51°14.184 2°53.761 9.1515 3.518949 31.283023 -2.871232
2007-03-12 08:07:39 51°14.175 2°53.735 9.1309 3.482599 30.931008 -2.871232
2007-03-12 08:07:44 51°14.166 2°53.709 9.1496 3.512114 31.222948 -2.871232
2007-03-12 08:07:49 51°14.157 2°53.682 9.1205 3.520814 31.313768 -2.871232
2007-03-12 08:07:54 51°14.147 2°53.656 9.1354 3.524439 31.356987 -2.871232
2007-03-12 08:07:59 51°14.138 2°53.63 9.1203 3.532931 31.437598 -2.871232
2007-03-12 08:08:04 51°14.129 2°53.604 9.1264 3.532931 31.437598 -2.871232
2007-03-12 08:08:08 51°14.121 2°53.582 9.1281 3.531688 31.425316 -2.871232
2007-03-12 08:08:14 51°14.11 2°53.551 9.1262 3.526096 31.371709 -2.871232
2007-03-12 08:08:19 51°14.101 2°53.525 9.1313 3.525474 31.374644 -2.871232
2007-03-12 08:08:24 51°14.092 2°53.498 9.1293 3.535314 31.477693 -2.871232
2007-03-12 08:08:28 51°14.084 2°53.477 9.1274 3.533035 31.459301 -2.871232
2007-03-12 08:08:34 51°14.073 2°53.445 9.126 3.533035 31.459301 -2.871232
2007-03-12 08:08:39 51°14.064 2°53.419 9.1256 3.512011 31.256431 -2.871232
2007-03-12 08:08:44 51°14.055 2°53.393 9.151 3.52071 31.343233 -2.871232
2007-03-12 08:08:49 51°14.045 2°53.367 9.128 3.524335 31.379068 -2.871232
2007-03-12 08:08:54 51°14.036 2°53.34 9.1309 3.499583 31.133666 -2.871232
2007-03-12 08:08:59 51°14.027 2°53.314 9.1432 3.499583 31.133666 -2.871232
2007-03-12 08:09:03 51°14.02 2°53.292 9.1346 3.530757 31.4467 -2.871232
2007-03-12 08:09:08 51°14.011 2°53.266 9.136 3.523921 31.382406 -2.871232
2007-03-12 08:09:14 51°14 2°53.234 9.1139 3.536453 31.506366 -2.871232
2007-03-12 08:09:19 51°13.991 2°53.208 9.1049 3.535417 31.496119 -2.871232
2007-03-12 08:09:24 51°13.982 2°53.181 9.1162 3.538421 31.525837 -2.871232
2007-03-12 08:09:29 51°13.973 2°53.155 9.1145 3.526717 31.409233 -2.871232
2007-03-12 08:09:34 51°13.964 2°53.128 9.1123 3.526717 31.409233 -2.871232
2007-03-12 08:09:39 51°13.954 2°53.102 9.1061 3.527235 31.41849 -2.871232
2007-03-12 08:09:44 51°13.945 2°53.075 9.1153 3.533657 31.487817 -2.871232
2007-03-12 08:09:48 51°13.938 2°53.054 9.1086 3.522161 31.381517 -2.871232
2007-03-12 08:09:54 51°13.927 2°53.022 9.1169 3.537903 31.53981 -2.871232
2007-03-12 08:09:59 51°13.918 2°52.995 9.1085 3.537903 31.53981 -2.871232
2007-03-12 08:10:04 51°13.909 2°52.968 9.1036 3.519882 31.367237 -2.871232
2007-03-12 08:10:08 51°13.901 2°52.947 9.1097 3.528479 31.456456 -2.871232
2007-03-12 08:10:14 51°13.89 2°52.916 9.1148 3.519468 31.365617 -2.871232
2007-03-12 08:10:18 51°13.883 2°52.894 9.1039 3.507247 31.248011 -2.871232
2007-03-12 08:10:24 51°13.872 2°52.862 9.1041 3.498548 31.164442 -2.871232
2007-03-12 08:10:29 51°13.863 2°52.836 9.1031 3.535004 31.527709 -2.871232
2007-03-12 08:10:34 51°13.853 2°52.809 9.1114 3.535004 31.527709 -2.871232
2007-03-12 08:10:38 51°13.846 2°52.788 9.1099 3.532311 31.503529 -2.871232
2007-03-12 08:10:44 51°13.835 2°52.756 9.0939 3.520297 31.38622 -2.871232
2007-03-12 08:10:49 51°13.825 2°52.729 9.092 3.534486 31.527565 -2.871232
2007-03-12 08:10:54 51°13.816 2°52.703 9.1119 3.511079 31.299112 -2.871232
2007-03-12 08:10:59 51°13.807 2°52.676 9.1003 3.511079 31.299112 -2.871232
2007-03-12 08:11:04 51°13.798 2°52.65 9.0894 3.528893 31.476316 -2.871232
2007-03-12 08:11:09 51°13.788 2°52.623 9.094 3.534486 31.53089 -2.871232
2007-03-12 08:11:14 51°13.779 2°52.597 9.1011 3.53345 31.523953 -2.871232
2007-03-12 08:11:19 51°13.77 2°52.57 9.0899 3.528479 31.480512 -2.871232
2007-03-12 08:11:23 51°13.762 2°52.549 9.0885 3.527443 31.467761 -2.871232
2007-03-12 08:11:28 51°13.753 2°52.522 9.0909 3.527443 31.467761 -2.871232
2007-03-12 08:11:34 51°13.743 2°52.49 9.0882 3.536764 31.560954 -2.871232
2007-03-12 08:11:39 51°13.733 2°52.463 9.0845 3.538732 31.585455 -2.871232
2007-03-12 08:11:44 51°13.724 2°52.437 9.0794 3.542254 31.623703 -2.871232
2007-03-12 08:11:48 51°13.717 2°52.415 9.0833 3.535522 31.558623 -2.871232
2007-03-12 08:11:54 51°13.706 2°52.383 9.0762 3.539665 31.603031 -2.871232
2007-03-12 08:11:59 51°13.697 2°52.356 9.0764 3.539665 31.603031 -2.871232
2007-03-12 08:12:04 51°13.688 2°52.33 9.0771 3.499791 31.208803 -2.871232
2007-03-12 08:12:08 51°13.681 2°52.308 9.0679 3.533761 31.546162 -2.871232
2007-03-12 08:12:14 51°13.67 2°52.277 9.078 3.536972 31.581329 -2.871232
2007-03-12 08:12:19 51°13.66 2°52.25 9.0746 3.536454 31.578693 -2.871232
2007-03-12 08:12:24 51°13.651 2°52.223 9.0718 3.533658 31.555958 -2.871232
2007-03-12 08:12:28 51°13.644 2°52.202 9.0719 3.533658 31.555958 -2.871232
2007-03-12 08:12:34 51°13.633 2°52.17 9.07 3.539043 31.612716 -2.871232
2007-03-12 08:12:39 51°13.624 2°52.143 9.0702 3.539354 31.617467 -2.871232
2007-03-12 08:12:44 51°13.615 2°52.116 9.0762 3.543497 31.660247 -2.871232
2007-03-12 08:12:48 51°13.608 2°52.095 9.0707 3.537801 31.604557 -2.871232
2007-03-12 08:12:54 51°13.597 2°52.064 9.0814 3.531483 31.543546 -2.871232
2007-03-12 08:12:59 51°13.587 2°52.037 9.0727 3.531483 31.543546 -2.871232
2007-03-12 08:13:04 51°13.578 2°52.01 9.0706 3.52879 31.517668 -2.871232
2007-03-12 08:13:08 51°13.571 2°51.989 9.0679 3.534176 31.57276 -2.871232
2007-03-12 08:13:14 51°13.56 2°51.957 9.0705 3.538319 31.613868 -2.871232
2007-03-12 08:13:19 51°13.551 2°51.93 9.0698 3.533244 31.563512 -2.871232
2007-03-12 08:13:24 51°13.542 2°51.904 9.0751 3.537386 31.603783 -2.871232
2007-03-12 08:13:29 51°13.533 2°51.877 9.0684 3.538629 31.616116 -2.871232
2007-03-12 08:13:34 51°13.524 2°51.851 9.073 3.538629 31.616116 -2.871232
2007-03-12 08:13:39 51°13.515 2°51.824 9.0721 3.531586 31.548738 -2.871232
2007-03-12 08:13:43 51°13.508 2°51.803 9.0702 3.53169 31.551432 -2.871232
2007-03-12 08:13:48 51°13.499 2°51.776 9.0678 3.533554 31.570763 -2.871232
2007-03-12 08:13:54 51°13.488 2°51.743 9.0781 3.53894 31.625045 -2.871232
2007-03-12 08:13:59 51°13.479 2°51.716 9.0742 3.53894 31.625045 -2.871232
2007-03-12 08:14:04 51°13.47 2°51.689 9.0774 3.507145 31.30886 -2.871232
2007-03-12 08:14:08 51°13.463 2°51.668 9.0753 3.510251 31.339655 -2.871232
2007-03-12 08:14:14 51°13.452 2°51.637 9.0723 3.536765 31.604293 -2.871232
2007-03-12 08:14:19 51°13.443 2°51.611 9.0761 3.524647 31.486556 -2.871232
2007-03-12 08:14:23 51°13.436 2°51.589 9.071 3.522576 31.464347 -2.871232
2007-03-12 08:14:29 51°13.425 2°51.557 9.0716 3.522576 31.464347 -2.871232
2007-03-12 08:14:34 51°13.416 2°51.53 9.079 3.529826 31.535434 -2.871232
2007-03-12 08:14:39 51°13.407 2°51.504 9.0723 3.527237 31.508914 -2.871232
2007-03-12 08:14:44 51°13.397 2°51.477 9.0763 3.527133 31.508719 -2.871232
2007-03-12 08:14:48 51°13.39 2°51.456 9.0759 3.496063 31.20153 -2.871232
2007-03-12 08:14:54 51°13.379 2°51.424 9.0784 3.530758 31.546349 -2.871232
2007-03-12 08:14:59 51°13.37 2°51.398 9.0825 3.530758 31.546349 -2.871232
2007-03-12 08:15:04 51°13.361 2°51.371 9.0799 3.527029 31.510188 -2.871232
2007-03-12 08:15:09 51°13.351 2°51.345 9.0779 3.523094 31.471145 -2.871232
2007-03-12 08:15:14 51°13.342 2°51.318 9.0782 3.529619 31.535877 -2.871232
2007-03-12 08:15:19 51°13.333 2°51.292 9.0733 3.525062 31.491497 -2.871232
2007-03-12 08:15:23 51°13.326 2°51.271 9.0759 3.534901 31.588294 -2.871232
2007-03-12 08:15:28 51°13.317 2°51.244 9.0777 3.533347 31.571208 -2.871232
2007-03-12 08:15:34 51°13.306 2°51.212 9.0772 3.533347 31.571208 -2.871232
2007-03-12 08:15:39 51°13.297 2°51.185 9.0725 3.521437 31.452217 -2.871232
2007-03-12 08:15:44 51°13.288 2°51.159 9.0764 3.529929 31.537294 -2.871232
2007-03-12 08:15:49 51°13.279 2°51.132 9.0795 3.528687 31.525796 -2.871232
2007-03-12 08:15:54 51°13.27 2°51.105 9.0795 3.529308 31.532794 -2.871232
2007-03-12 08:15:59 51°13.261 2°51.078 9.0797 3.529308 31.532794 -2.871232
2007-03-12 08:16:04 51°13.252 2°51.051 9.0759 3.516983 31.410541 -2.871232
2007-03-12 08:16:08 51°13.245 2°51.03 9.0777 3.533762 31.576987 -2.871232
2007-03-12 08:16:14 51°13.234 2°50.997 9.0774 3.521851 31.459648 -2.871232
2007-03-12 08:16:19 51°13.225 2°50.971 9.08 3.525269 31.493552 -2.871232
2007-03-12 08:16:24 51°13.216 2°50.944 9.0754 3.533554 31.574931 -2.871232
2007-03-12 08:16:28 51°13.209 2°50.923 9.0764 3.533554 31.574931 -2.871232
2007-03-12 08:16:34 51°13.198 2°50.89 9.0762 3.516776 31.408487 -2.871232
2007-03-12 08:16:39 51°13.189 2°50.864 9.0755 3.533554 31.574931 -2.871232
2007-03-12 08:16:44 51°13.18 2°50.837 9.0818 3.504038 31.283024 -2.871232
2007-03-12 08:16:48 51°13.173 2°50.816 9.0803 3.519987 31.441158 -2.871232
2007-03-12 08:16:54 51°13.162 2°50.783 9.0766 3.525683 31.498494 -2.871232
2007-03-12 08:16:59 51°13.153 2°50.757 9.0769 3.527133 31.514544 -2.871232
2007-03-12 08:17:04 51°13.144 2°50.73 9.0798 3.527133 31.514544 -2.871232
2007-03-12 08:17:08 51°13.137 2°50.708 9.0753 3.51719 31.415914 -2.871232
2007-03-12 08:17:14 51°13.126 2°50.675 9.0733 3.527029 31.513517 -2.871232
2007-03-12 08:17:19 51°13.118 2°50.648 9.0778 3.522162 31.464392 -2.871232
2007-03-12 08:17:24 51°13.109 2°50.622 9.0712 3.529515 31.538181 -2.871232
2007-03-12 08:17:29 51°13.1 2°50.595 9.0751 3.529515 31.538181 -2.871232
2007-03-12 08:17:34 51°13.091 2°50.568 9.0759 3.527444 31.51846 -2.871232
2007-03-12 08:17:38 51°13.084 2°50.546 9.0792 3.525372 31.497075 -2.871232
2007-03-12 08:17:44 51°13.073 2°50.514 9.072 3.527858 31.523403 -2.871232
2007-03-12 08:17:49 51°13.064 2°50.487 9.0703 3.521851 31.463803 -2.871232
2007-03-12 08:17:54 51°13.055 2°50.46 9.0686 3.496995 31.219832 -2.871232
2007-03-12 08:17:58 51°13.048 2°50.439 9.0739 3.496995 31.219832 -2.871232
2007-03-12 08:18:03 51°13.038 2°50.412 9.0683 3.533451 31.58141 -2.871232
2007-03-12 08:18:09 51°13.028 2°50.38 9.0682 3.521955 31.466493 -2.871232
2007-03-12 08:18:14 51°13.019 2°50.353 9.0714 3.485914 31.110863 -2.871232
2007-03-12 08:18:19 51°13.01 2°50.326 9.0688 3.487778 31.130151 -2.871232
2007-03-12 08:18:24 51°13.001 2°50.299 9.068 3.535626 31.607176 -2.871232
2007-03-12 08:18:28 51°12.994 2°50.277 9.068 3.535626 31.607176 -2.871232
2007-03-12 08:18:34 51°12.983 2°50.245 9.0721 3.534797 31.599784 -2.871232
2007-03-12 08:18:39 51°12.974 2°50.218 9.0672 3.532001 31.572856 -2.871232
2007-03-12 08:18:43 51°12.967 2°50.197 9.0643 3.52879 31.540984 -2.871232
2007-03-12 08:18:48 51°12.958 2°50.17 9.0656 3.533244 31.58436 -2.871232
2007-03-12 08:18:54 51°12.947 2°50.138 9.0583 3.539665 31.649793 -2.871232
2007-03-12 08:18:59 51°12.938 2°50.111 9.0575 3.541012 31.664838 -2.871232
2007-03-12 08:19:04 51°12.929 2°50.084 9.0544 3.541012 31.664838 -2.871232
2007-03-12 08:19:08 51°12.922 2°50.063 9.052 3.536351 31.617716 -2.871232
2007-03-12 08:19:14 51°12.911 2°50.031 9.0491 3.533762 31.593675 -2.871232
2007-03-12 08:19:19 51°12.902 2°50.004 9.0508 3.536869 31.626201 -2.871232
2007-03-12 08:19:24 51°12.893 2°49.978 9.0489 3.535005 31.610193 -2.871232
2007-03-12 08:19:28 51°12.886 2°49.956 9.0568 3.535005 31.610193 -2.871232
2007-03-12 08:19:34 51°12.875 2°49.924 9.049 3.535937 31.622793 -2.871232
2007-03-12 08:19:39 51°12.866 2°49.897 9.0555 3.51978 31.464032 -2.871232
2007-03-12 08:19:44 51°12.857 2°49.871 9.0522 3.538319 31.650639 -2.871232
2007-03-12 08:19:49 51°12.848 2°49.844 9.0535 3.535108 31.622086 -2.871232
2007-03-12 08:19:54 51°12.839 2°49.817 9.0517 3.527962 31.5511 -2.871232
2007-03-12 08:19:59 51°12.83 2°49.79 9.0532 3.527962 31.5511 -2.871232
2007-03-12 08:20:03 51°12.823 2°49.769 9.0552 3.533658 31.607681 -2.871232
2007-03-12 08:20:08 51°12.814 2°49.742 9.0524 3.532623 31.599063 -2.871232
2007-03-12 08:20:14 51°12.803 2°49.71 9.0564 3.51512 31.42442 -2.871232
2007-03-12 08:20:19 51°12.794 2°49.683 9.0543 3.537387 31.646397 -2.871232
2007-03-12 08:20:23 51°12.786 2°49.662 9.0522 3.540183 31.675023 -2.871232
2007-03-12 08:20:29 51°12.775 2°49.63 9.0507 3.535937 31.63199 -2.871232
2007-03-12 08:20:34 51°12.766 2°49.603 9.0525 3.535937 31.63199 -2.871232
2007-03-12 08:20:39 51°12.757 2°49.577 9.0553 3.54153 31.685891 -2.871232
2007-03-12 08:20:44 51°12.747 2°49.55 9.0562 3.538319 31.653986 -2.871232
2007-03-12 08:20:48 51°12.74 2°49.529 9.0558 3.537698 31.646975 -2.871232
2007-03-12 08:20:54 51°12.729 2°49.496 9.0574 3.545569 31.726035 -2.871232
2007-03-12 08:20:59 51°12.72 2°49.47 9.0613 3.541944 31.690845 -2.871232
2007-03-12 08:21:03 51°12.712 2°49.448 9.0565 3.541944 31.690845 -2.871232
2007-03-12 08:21:08 51°12.703 2°49.421 9.0612 3.541219 31.684478 -2.871232
2007-03-12 08:21:14 51°12.692 2°49.39 9.0608 3.540701 31.678494 -2.871232
2007-03-12 08:21:19 51°12.683 2°49.363 9.0647 3.531173 31.582989 -2.871232
2007-03-12 08:21:24 51°12.673 2°49.336 9.0621 3.529516 31.565695 -2.871232
2007-03-12 08:21:29 51°12.664 2°49.309 9.0661 3.529516 31.565695 -2.871232
2007-03-12 08:21:34 51°12.655 2°49.282 9.0628 3.522576 31.495953 -2.871232
2007-03-12 08:21:39 51°12.645 2°49.256 9.0628 3.536558 31.634819 -2.871232
2007-03-12 08:21:43 51°12.638 2°49.235 9.0663 3.543498 31.702933 -2.871232
2007-03-12 08:21:49 51°12.627 2°49.202 9.0609 3.544119 31.70827 -2.871232
2007-03-12 08:21:54 51°12.618 2°49.176 9.0674 3.536869 31.634561 -2.871232
2007-03-12 08:21:59 51°12.608 2°49.149 9.0657 3.536869 31.634561 -2.871232
2007-03-12 08:22:04 51°12.599 2°49.122 9.068 3.543705 31.702477 -2.871232
2007-03-12 08:22:09 51°12.589 2°49.096 9.0674 3.536765 31.631859 -2.871232
2007-03-12 08:22:14 51°12.58 2°49.069 9.0706 3.526408 31.529836 -2.871232
2007-03-12 08:22:19 51°12.571 2°49.042 9.0659 3.544741 31.711931 -2.871232
2007-03-12 08:22:23 51°12.563 2°49.021 9.0659 3.544844 31.71296 -2.871232
2007-03-12 08:22:29 51°12.552 2°48.989 9.0712 3.543601 31.699772 -2.871232
2007-03-12 08:22:34 51°12.543 2°48.962 9.07 3.543601 31.699772 -2.871232
2007-03-12 08:22:39 51°12.534 2°48.935 9.0702 3.539769 31.66086 -2.871232
2007-03-12 08:22:43 51°12.526 2°48.913 9.0717 3.539251 31.654879 -2.871232
2007-03-12 08:22:48 51°12.517 2°48.886 9.07 3.53863 31.647869 -2.871232
2007-03-12 08:22:54 51°12.506 2°48.854 9.0716 3.54039 31.666197 -2.871232
2007-03-12 08:22:59 51°12.497 2°48.827 9.0705 3.519676 31.459678 -2.871232
2007-03-12 08:23:04 51°12.488 2°48.8 9.0703 3.519676 31.459678 -2.871232
2007-03-12 08:23:08 51°12.48 2°48.779 9.0716 3.539562 31.656292 -2.871232
2007-03-12 08:23:14 51°12.469 2°48.746 9.0713 3.543083 31.691275 -2.871232
2007-03-12 08:23:19 51°12.46 2°48.72 9.0704 3.53428 31.602993 -2.871232
2007-03-12 08:23:24 51°12.45 2°48.693 9.0726 3.53459 31.605243 -2.871232
2007-03-12 08:23:28 51°12.443 2°48.672 9.0763 3.53459 31.605243 -2.871232
2007-03-12 08:23:33 51°12.434 2°48.645 9.0752 3.540908 31.66883 -2.871232
2007-03-12 08:23:39 51°12.422 2°48.612 9.0762 3.543705 31.696612 -2.871232
2007-03-12 08:23:44 51°12.413 2°48.585 9.0838 3.542669 31.686322 -2.871232
2007-03-12 08:23:48 51°12.406 2°48.564 9.0711 3.542876 31.68838 -2.871232
2007-03-12 08:23:54 51°12.395 2°48.531 9.0722 3.532933 31.588787 -2.871232
2007-03-12 08:23:59 51°12.386 2°48.504 9.0735 3.532933 31.588787 -2.871232
2007-03-12 08:24:04 51°12.376 2°48.478 9.0726 3.541322 31.670435 -2.871232
2007-03-12 08:24:08 51°12.369 2°48.456 9.0713 3.534901 31.606658 -2.871232
2007-03-12 08:24:14 51°12.358 2°48.424 9.0706 3.53718 31.629286 -2.871232
2007-03-12 08:24:19 51°12.349 2°48.397 9.0739 3.544948 31.706446 -2.871232
2007-03-12 08:24:24 51°12.339 2°48.37 9.0788 3.546812 31.726646 -2.871232
2007-03-12 08:24:29 51°12.33 2°48.343 9.0713 3.548366 31.742083 -2.871232
2007-03-12 08:24:34 51°12.321 2°48.316 9.0734 3.548366 31.742083 -2.871232
2007-03-12 08:24:39 51°12.311 2°48.289 9.0752 3.547744 31.736747 -2.871232
2007-03-12 08:24:43 51°12.304 2°48.268 9.0722 3.54329 31.691658 -2.871232
2007-03-12 08:24:49 51°12.293 2°48.236 9.0748 3.544948 31.70896 -2.871232
2007-03-12 08:24:54 51°12.283 2°48.209 9.0721 3.540805 31.666965 -2.871232
2007-03-12 08:24:58 51°12.276 2°48.188 9.0765 3.540805 31.666965 -2.871232
2007-03-12 08:25:03 51°12.266 2°48.162 9.0779 3.54878 31.747039 -2.871232
2007-03-12 08:25:09 51°12.255 2°48.129 9.08 3.551162 31.770713 -2.871232
2007-03-12 08:25:14 51°12.246 2°48.103 9.0785 3.543601 31.695583 -2.871232
2007-03-12 08:25:19 51°12.237 2°48.076 9.0806 3.536765 31.627679 -2.871232
2007-03-12 08:25:23 51°12.229 2°48.054 9.0807 3.543705 31.696612 -2.871232
2007-03-12 08:25:29 51°12.218 2°48.022 9.0791 3.543705 31.696612 -2.871232
2007-03-12 08:25:34 51°12.209 2°47.995 9.0834 3.540287 31.660984 -2.871232
2007-03-12 08:25:39 51°12.199 2°47.968 9.0793 3.54474 31.705226 -2.871232
2007-03-12 08:25:44 51°12.19 2°47.941 9.0851 3.539562 31.652946 -2.871232
2007-03-12 08:25:48 51°12.183 2°47.92 9.0803 3.543705 31.693261 -2.871232
2007-03-12 08:25:54 51°12.171 2°47.887 9.0805 3.538008 31.635008 -2.871232
2007-03-12 08:25:59 51°12.162 2°47.861 9.0822 3.522162 31.477694 -2.871232
2007-03-12 08:26:04 51°12.153 2°47.834 9.082 3.522162 31.477694 -2.871232
2007-03-12 08:26:09 51°12.144 2°47.807 9.0819 3.533244 31.586864 -2.871232
2007-03-12 08:26:14 51°12.134 2°47.78 9.0832 3.554476 31.797772 -2.871232
2007-03-12 08:26:19 51°12.125 2°47.753 9.0829 3.55023 31.754735 -2.871232
2007-03-12 08:26:24 51°12.116 2°47.726 9.0802 3.554269 31.795713 -2.871232
2007-03-12 08:26:28 51°12.108 2°47.705 9.0758 3.554269 31.795713 -2.871232
2007-03-12 08:26:34 51°12.097 2°47.672 9.0813 3.553855 31.791596 -2.871232
2007-03-12 08:26:39 51°12.088 2°47.646 9.0717 3.551887 31.77204 -2.871232
2007-03-12 08:26:44 51°12.079 2°47.619 9.0738 3.555201 31.804137 -2.871232
2007-03-12 08:26:49 51°12.069 2°47.592 9.0771 3.549608 31.74856 -2.871232
2007-03-12 08:26:54 51°12.06 2°47.565 9.0695 3.561727 31.870679 -2.871232
2007-03-12 08:26:59 51°12.051 2°47.538 9.0698 3.561727 31.870679 -2.871232
2007-03-12 08:27:04 51°12.042 2°47.511 9.0701 3.551576 31.769792 -2.871232
2007-03-12 08:27:09 51°12.033 2°47.484 9.0715 3.558412 31.840255 -2.871232
2007-03-12 08:27:14 51°12.023 2°47.457 9.071 3.547951 31.737966 -2.871232
2007-03-12 08:27:19 51°12.014 2°47.43 9.0725 3.554269 31.801596 -2.871232
2007-03-12 08:27:23 51°12.007 2°47.409 9.075 3.556755 31.827988 -2.871232
2007-03-12 08:27:28 51°11.997 2°47.382 9.0726 3.556755 31.827988 -2.871232
2007-03-12 08:27:34 51°11.987 2°47.349 9.0756 3.557273 31.834819 -2.871232
2007-03-12 08:27:39 51°11.978 2°47.322 9.0753 3.55458 31.808047 -2.871232
2007-03-12 08:27:44 51°11.97 2°47.294 9.074 3.533555 31.599969 -2.871232
2007-03-12 08:27:48 51°11.964 2°47.271 9.0787 3.550126 31.763778 -2.871232
2007-03-12 08:27:54 51°11.955 2°47.238 9.075 3.555098 31.812355 -2.871232
2007-03-12 08:27:59 51°11.948 2°47.209 9.0777 3.560173 31.86197 -2.871232
2007-03-12 08:28:04 51°11.94 2°47.181 9.0742 3.560173 31.86197 -2.871232
2007-03-12 08:28:08 51°11.935 2°47.158 9.0746 3.555616 31.815821 -2.871232
2007-03-12 08:28:14 51°11.927 2°47.123 9.0788 3.563591 31.895114 -2.871232
2007-03-12 08:28:19 51°11.921 2°47.094 9.0736 3.560691 31.866277 -2.871232
2007-03-12 08:28:24 51°11.914 2°47.065 9.0752 3.555616 31.81498 -2.871232
2007-03-12 08:28:29 51°11.909 2°47.035 9.0767 3.555616 31.81498 -2.871232
2007-03-12 08:28:34 51°11.903 2°47.006 9.0781 3.557791 31.83576 -2.871232
2007-03-12 08:28:38 51°11.898 2°46.983 9.0797 3.564006 31.898391 -2.871232
2007-03-12 08:28:44 51°11.891 2°46.947 9.0743 3.563902 31.897361 -2.871232
2007-03-12 08:28:49 51°11.885 2°46.918 9.0721 3.562763 31.886032 -2.871232
2007-03-12 08:28:54 51°11.879 2°46.889 9.073 3.562141 31.880695 -2.871232
2007-03-12 08:28:58 51°11.874 2°46.865 9.0745 3.562141 31.880695 -2.871232
2007-03-12 08:29:03 51°11.868 2°46.836 9.0737 3.559034 31.8498 -2.871232
2007-03-12 08:29:09 51°11.862 2°46.8 9.0739 3.558516 31.844651 -2.871232
2007-03-12 08:29:14 51°11.856 2°46.771 9.075 3.557066 31.830236 -2.871232
2007-03-12 08:29:19 51°11.85 2°46.742 9.0684 3.557066 31.831918 -2.871232
2007-03-12 08:29:24 51°11.844 2°46.712 9.0695 3.560173 31.863654 -2.871232
2007-03-12 08:29:29 51°11.838 2°46.683 9.067 3.557998 31.842869 -2.871232
2007-03-12 08:29:34 51°11.833 2°46.653 9.0696 3.557998 31.842869 -2.871232
2007-03-12 08:29:39 51°11.827 2°46.624 9.0656 3.562763 31.890246 -2.871232
2007-03-12 08:29:43 51°11.822 2°46.6 9.0633 3.562452 31.887156 -2.871232
2007-03-12 08:29:48 51°11.817 2°46.571 9.0659 3.56183 31.881819 -2.871232
2007-03-12 08:29:54 51°11.809 2°46.536 9.0671 3.561105 31.876294 -2.871232
2007-03-12 08:29:59 51°11.804 2°46.506 9.0638 3.563177 31.896896 -2.871232
2007-03-12 08:30:04 51°11.797 2°46.477 9.065 3.563177 31.896896 -2.871232
2007-03-12 08:30:08 51°11.792 2°46.454 9.0675 3.563799 31.904764 -2.871232
2007-03-12 08:30:14 51°11.785 2°46.419 9.066 3.55862 31.854943 -2.871232
2007-03-12 08:30:19 51°11.778 2°46.391 9.0659 3.559448 31.863184 -2.871232
2007-03-12 08:30:24 51°11.772 2°46.361 9.0645 3.560691 31.877231 -2.871232
2007-03-12 08:30:28 51°11.766 2°46.338 9.067 3.560691 31.877231 -2.871232
2007-03-12 08:30:34 51°11.759 2°46.304 9.066 3.557895 31.850259 -2.871232
2007-03-12 08:30:39 51°11.752 2°46.275 9.071 3.561313 31.883412 -2.871232
2007-03-12 08:30:44 51°11.746 2°46.246 9.0664 3.550644 31.777325 -2.871232
2007-03-12 08:30:49 51°11.739 2°46.217 9.0651 3.562452 31.894745 -2.871232
2007-03-12 08:30:54 51°11.733 2°46.189 9.0679 3.565663 31.926686 -2.871232
2007-03-12 08:30:59 51°11.726 2°46.16 9.0656 3.553234 31.803069 -2.871232
2007-03-12 08:31:04 51°11.719 2°46.131 9.0672 3.553234 31.803069 -2.871232
2007-03-12 08:31:08 51°11.714 2°46.108 9.0701 3.566492 31.934085 -2.871232
2007-03-12 08:31:14 51°11.706 2°46.074 9.0682 3.563281 31.9013 -2.871232
2007-03-12 08:31:19 51°11.7 2°46.045 9.0693 3.556962 31.839305 -2.871232
2007-03-12 08:31:23 51°11.694 2°46.022 9.071 3.570117 31.970999 -2.871232
2007-03-12 08:31:29 51°11.687 2°45.987 9.0773 3.567113 31.940268 -2.871232
2007-03-12 08:31:34 51°11.68 2°45.958 9.0839 3.567113 31.940268 -2.871232
2007-03-12 08:31:39 51°11.673 2°45.93 9.0944 3.558102 31.848951 -2.871232
2007-03-12 08:31:44 51°11.667 2°45.901 9.0981 3.566181 31.925085 -2.871232
2007-03-12 08:31:49 51°11.66 2°45.872 9.1002 3.568045 31.941096 -2.871232
2007-03-12 08:31:54 51°11.653 2°45.843 9.1099 3.567009 31.929106 -2.871232
2007-03-12 08:31:59 51°11.647 2°45.814 9.1214 3.567009 31.929106 -2.871232
2007-03-12 08:32:03 51°11.641 2°45.791 9.1185 3.562038 31.877137 -2.871232
2007-03-12 08:32:08 51°11.635 2°45.762 9.1145 3.566595 31.916549 -2.871232
2007-03-12 08:32:14 51°11.626 2°45.728 9.1179 3.565663 31.90138 -2.871232
2007-03-12 08:32:19 51°11.62 2°45.699 9.1109 3.566698 31.905775 -2.871232
2007-03-12 08:32:24 51°11.613 2°45.67 9.1206 3.567009 31.903807 -2.871232
2007-03-12 08:32:29 51°11.607 2°45.641 9.1189 3.567009 31.903807 -2.871232
2007-03-12 08:32:34 51°11.6 2°45.612 9.1159 3.561726 31.844591 -2.871232
2007-03-12 08:32:39 51°11.593 2°45.584 9.1213 3.567941 31.902118 -2.871232
2007-03-12 08:32:43 51°11.588 2°45.561 9.1175 3.562866 31.850021 -2.871232
2007-03-12 08:32:49 51°11.58 2°45.526 9.1155 3.56618 31.881259 -2.871232
2007-03-12 08:32:54 51°11.574 2°45.497 9.1187 3.565559 31.874245 -2.871232
2007-03-12 08:32:59 51°11.567 2°45.468 9.1166 3.567423 31.891079 -2.871232
2007-03-12 08:33:04 51°11.561 2°45.439 9.1068 3.567423 31.891079 -2.871232
2007-03-12 08:33:09 51°11.554 2°45.41 9.1185 3.569702 31.913714 -2.871232
2007-03-12 08:33:14 51°11.548 2°45.381 9.1191 3.559033 31.806085 -2.871232
2007-03-12 08:33:19 51°11.541 2°45.352 9.1188 3.567319 31.888367 -2.871232
2007-03-12 08:33:24 51°11.535 2°45.323 9.1144 3.552508 31.741311 -2.871232
2007-03-12 08:33:29 51°11.528 2°45.294 9.1194 3.555512 31.772802 -2.871232
2007-03-12 08:33:34 51°11.521 2°45.265 9.1142 3.555512 31.772802 -2.871232
2007-03-12 08:33:39 51°11.515 2°45.236 9.116 3.562555 31.843573 -2.871232
2007-03-12 08:33:43 51°11.51 2°45.212 9.1194 3.565144 31.868447 -2.871232
2007-03-12 08:33:49 51°11.503 2°45.177 9.1205 3.568355 31.899497 -2.871232
2007-03-12 08:33:54 51°11.498 2°45.148 9.1164 3.568148 31.896597 -2.871232
2007-03-12 08:33:58 51°11.493 2°45.124 9.1183 3.568148 31.896597 -2.871232
2007-03-12 08:34:03 51°11.487 2°45.095 9.12 3.564212 31.85919 -2.871232
2007-03-12 08:34:08 51°11.481 2°45.065 9.1196 3.567837 31.895195 -2.871232
2007-03-12 08:34:14 51°11.475 2°45.03 9.1271 3.564005 31.857132 -2.871232
2007-03-12 08:34:18 51°11.47 2°45.006 9.1193 3.570323 31.919887 -2.871232
2007-03-12 08:34:23 51°11.464 2°44.977 9.1332 3.568562 31.902396 -2.871232
2007-03-12 08:34:28 51°11.459 2°44.947 9.1267 3.568562 31.902396 -2.871232
2007-03-12 08:34:34 51°11.452 2°44.912 9.1312 3.569598 31.911843 -2.871232
2007-03-12 08:34:38 51°11.447 2°44.888 9.1263 3.559344 31.807491 -2.871232
2007-03-12 08:34:43 51°11.442 2°44.859 9.1368 3.56183 31.831331 -2.871232
2007-03-12 08:34:48 51°11.436 2°44.829 9.1328 3.571877 31.929422 -2.871232
2007-03-12 08:34:53 51°11.43 2°44.8 9.1427 3.567527 31.885375 -2.871232
2007-03-12 08:34:59 51°11.424 2°44.764 9.1511 3.569495 31.901551 -2.871232
2007-03-12 08:35:03 51°11.419 2°44.741 9.1386 3.569495 31.901551 -2.871232
2007-03-12 08:35:08 51°11.413 2°44.711 9.1419 3.565662 31.860976 -2.871232
2007-03-12 08:35:13 51°11.408 2°44.682 9.1462 3.569184 31.89594 -2.871232
2007-03-12 08:35:18 51°11.402 2°44.652 9.1353 3.568148 31.883132 -2.871232
2007-03-12 08:35:23 51°11.397 2°44.622 9.138 3.56473 31.84752 -2.871232
2007-03-12 08:35:28 51°11.391 2°44.593 9.1388 3.56473 31.84752 -2.871232
2007-03-12 08:35:34 51°11.385 2°44.557 9.1515 3.572498 31.922115 -2.871232
2007-03-12 08:35:38 51°11.38 2°44.534 9.1494 3.57198 31.916131 -2.871232
2007-03-12 08:35:43 51°11.374 2°44.504 9.1294 3.572291 31.920058 -2.871232
2007-03-12 08:35:48 51°11.369 2°44.475 9.1389 3.568251 31.879955 -2.871232
2007-03-12 08:35:54 51°11.362 2°44.439 9.1399 3.568873 31.886966 -2.871232
2007-03-12 08:35:58 51°11.357 2°44.416 9.1431 3.568873 31.886966 -2.871232
2007-03-12 08:36:03 51°11.352 2°44.386 9.1394 3.57343 31.931371 -2.871232
2007-03-12 08:36:08 51°11.346 2°44.357 9.1447 3.569391 31.887901 -2.871232
2007-03-12 08:36:13 51°11.34 2°44.327 9.1392 3.573638 31.929216 -2.871232
2007-03-12 08:36:18 51°11.334 2°44.298 9.1379 3.571462 31.910148 -2.871232
2007-03-12 08:36:23 51°11.329 2°44.268 9.1432 3.574881 31.944084 -2.871232
2007-03-12 08:36:28 51°11.323 2°44.239 9.1404 3.575398 31.948383 -2.871232
2007-03-12 08:36:33 51°11.317 2°44.209 9.1348 3.575398 31.948383 -2.871232
2007-03-12 08:36:38 51°11.312 2°44.179 9.1508 3.570323 31.897154 -2.871232
2007-03-12 08:36:43 51°11.306 2°44.15 9.1504 3.57343 31.928002 -2.871232
2007-03-12 08:36:48 51°11.3 2°44.12 9.1402 3.56618 31.856031 -2.871232
2007-03-12 08:36:53 51°11.295 2°44.091 9.14 3.572809 31.921832 -2.871232
2007-03-12 08:36:59 51°11.288 2°44.055 9.1286 3.569598 31.889116 -2.871232
2007-03-12 08:37:03 51°11.283 2°44.032 9.1444 3.569598 31.889116 -2.871232
2007-03-12 08:37:08 51°11.278 2°44.002 9.1512 3.576952 31.965497 -2.871232
2007-03-12 08:37:13 51°11.272 2°43.972 9.1355 3.571048 31.905193 -2.871232
2007-03-12 08:37:18 51°11.266 2°43.943 9.1467 3.57312 31.922391 -2.871232
2007-03-12 08:37:23 51°11.261 2°43.913 9.1429 3.570427 31.895659 -2.871232
2007-03-12 08:37:28 51°11.256 2°43.883 9.133 3.570427 31.895659 -2.871232
2007-03-12 08:37:34 51°11.251 2°43.847 9.1334 3.578506 31.980082 -2.871232
2007-03-12 08:37:38 51°11.247 2°43.823 9.1444 3.572084 31.918002 -2.871232
2007-03-12 08:37:43 51°11.244 2°43.793 9.177 3.57198 31.914447 -2.871232
2007-03-12 08:37:48 51°11.24 2°43.762 9.2094 3.575916 31.952683 -2.871232
2007-03-12 08:37:54 51°11.237 2°43.725 9.2116 3.577159 31.965868 -2.871232
2007-03-12 08:37:58 51°11.234 2°43.701 9.1633 3.577159 31.965868 -2.871232
2007-03-12 08:38:03 51°11.232 2°43.67 9.1864 3.583581 32.033871 -2.871232
2007-03-12 08:38:08 51°11.229 2°43.639 9.1995 3.555822 31.759122 -2.871232
2007-03-12 08:38:13 51°11.227 2°43.609 9.2059 3.577263 31.96521 -2.871232
2007-03-12 08:38:18 51°11.225 2°43.578 9.1812 3.56908 31.866325 -2.871232
2007-03-12 08:38:23 51°11.222 2°43.547 9.2197 3.580474 31.973481 -2.871232
2007-03-12 08:38:28 51°11.22 2°43.516 9.1919 3.578195 31.954238 -2.871232
2007-03-12 08:38:33 51°11.218 2°43.486 9.2629 3.578195 31.954238 -2.871232
2007-03-12 08:38:38 51°11.216 2°43.458 9.2848 3.580266 31.973953 -2.871232
2007-03-12 08:38:43 51°11.213 2°43.43 9.2165 3.57778 31.943391 -2.871232
2007-03-12 08:38:48 51°11.211 2°43.404 9.2441 3.583167 31.994304 -2.871232
2007-03-12 08:38:54 51°11.209 2°43.374 9.1989 3.582649 31.97821 -2.871232
2007-03-12 08:38:58 51°11.207 2°43.355 9.2569 3.580577 31.951771 -2.871232
2007-03-12 08:39:03 51°11.205 2°43.331 9.1889 3.580577 31.951771 -2.871232
2007-03-12 08:39:08 51°11.202 2°43.307 9.1779 3.577987 31.916008 -2.871232
2007-03-12 08:39:14 51°11.198 2°43.279 9.1718 3.577262 31.894547 -2.871232
2007-03-12 08:39:18 51°11.195 2°43.261 9.1591 3.580473 31.92552 -2.871232
2007-03-12 08:39:23 51°11.192 2°43.238 9.1619 3.581509 31.944189 -2.871232
2007-03-12 08:39:28 51°11.188 2°43.215 9.1552 3.581509 31.944189 -2.871232
2007-03-12 08:39:33 51°11.185 2°43.193 9.1615 3.585652 31.99031 -2.871232
2007-03-12 08:39:38 51°11.183 2°43.17 9.1601 3.586792 32.011721 -2.871232
2007-03-12 08:39:43 51°11.181 2°43.147 9.1674 3.578816 31.94609 -2.871232
2007-03-12 08:39:48 51°11.18 2°43.124 9.1735 3.585756 32.027596 -2.871232
2007-03-12 08:39:53 51°11.179 2°43.101 9.1593 3.583063 32.007615 -2.871232
2007-03-12 08:39:58 51°11.179 2°43.078 9.1474 3.583063 32.007615 -2.871232
2007-03-12 08:40:03 51°11.179 2°43.055 9.1706 3.585239 32.035122 -2.871232
2007-03-12 08:40:08 51°11.179 2°43.032 9.1598 3.584306 32.02502 -2.871232
2007-03-12 08:40:13 51°11.179 2°43.009 9.1685 3.584203 32.022303 -2.871232
2007-03-12 08:40:18 51°11.179 2°42.986 9.145 3.57892 31.96986 -2.871232
2007-03-12 08:40:23 51°11.179 2°42.963 9.1455 3.578402 31.967248 -2.871232
2007-03-12 08:40:28 51°11.178 2°42.94 9.1331 3.583478 32.015104 -2.871232
2007-03-12 08:40:34 51°11.178 2°42.913 9.144 3.583478 32.015104 -2.871232
2007-03-12 08:40:38 51°11.177 2°42.895 9.1423 3.58182 31.994433 -2.871232
2007-03-12 08:40:43 51°11.177 2°42.872 9.1356 3.577056 31.950512 -2.871232
2007-03-12 08:40:48 51°11.176 2°42.849 9.1646 3.583167 32.01624 -2.871232
2007-03-12 08:40:54 51°11.175 2°42.822 9.1597 3.583374 32.024209 -2.871232
2007-03-12 08:40:58 51°11.174 2°42.803 9.1512 3.580888 32.006275 -2.871232
2007-03-12 08:41:03 51°11.173 2°42.78 9.1436 3.580888 32.006275 -2.871232
2007-03-12 08:41:08 51°11.172 2°42.758 9.1395 3.576849 31.969528 -2.871232
2007-03-12 08:41:13 51°11.171 2°42.735 9.1333 3.576227 31.963356 -2.871232
2007-03-12 08:41:18 51°11.17 2°42.713 9.1319 3.581303 32.009546 -2.871232
2007-03-12 08:41:23 51°11.169 2°42.692 9.148 3.574777 31.942213 -2.871232
2007-03-12 08:41:28 51°11.167 2°42.672 9.1374 3.574777 31.942213 -2.871232
2007-03-12 08:41:34 51°11.165 2°42.649 9.1447 3.583271 32.025714 -2.871232
2007-03-12 08:41:38 51°11.164 2°42.634 9.1425 3.575502 31.952783 -2.871232
2007-03-12 08:41:43 51°11.162 2°42.617 9.1413 3.574673 31.949612 -2.871232
2007-03-12 08:41:48 51°11.16 2°42.6 9.1291 3.571566 31.921281 -2.871232
2007-03-12 08:41:53 51°11.158 2°42.584 9.1425 3.585239 32.056255 -2.871232
2007-03-12 08:41:58 51°11.156 2°42.568 9.1335 3.576952 31.975619 -2.871232
2007-03-12 08:42:03 51°11.154 2°42.553 9.1382 3.576952 31.975619 -2.871232
2007-03-12 08:42:08 51°11.152 2°42.538 9.134 3.580474 32.011449 -2.871232
2007-03-12 08:42:13 51°11.15 2°42.523 9.1416 3.586896 32.076109 -2.871232
2007-03-12 08:42:19 51°11.148 2°42.506 9.1393 3.579231 32.002479 -2.871232
2007-03-12 08:42:23 51°11.146 2°42.495 9.1404 3.58586 32.067508 -2.871232
2007-03-12 08:42:28 51°11.144 2°42.482 9.1318 3.582339 32.031664 -2.871232
2007-03-12 08:42:33 51°11.143 2°42.469 9.1411 3.582339 32.031664 -2.871232
2007-03-12 08:42:38 51°11.141 2°42.456 9.1405 3.563176 31.84302 -2.871232
2007-03-12 08:42:43 51°11.139 2°42.443 9.1491 3.581717 32.028025 -2.871232
2007-03-12 08:42:48 51°11.138 2°42.431 9.1286 3.581821 32.027364 -2.871232
2007-03-12 08:42:54 51°11.135 2°42.416 9.1256 3.581924 32.029238 -2.871232
2007-03-12 08:42:58 51°11.134 2°42.405 9.143 3.581924 32.029238 -2.871232
2007-03-12 08:43:03 51°11.132 2°42.391 9.1374 3.585343 32.064899 -2.871232
2007-03-12 08:43:08 51°11.13 2°42.377 9.1427 3.566698 31.876305 -2.871232
2007-03-12 08:43:14 51°11.128 2°42.359 9.1331 3.580267 32.006013 -2.871232
2007-03-12 08:43:18 51°11.127 2°42.347 9.1417 3.572809 31.934467 -2.871232
2007-03-12 08:43:23 51°11.125 2°42.332 9.1425 3.585653 32.066295 -2.871232
2007-03-12 08:43:28 51°11.124 2°42.318 9.1377 3.585653 32.066295 -2.871232
2007-03-12 08:43:34 51°11.122 2°42.301 9.1444 3.577781 31.987227 -2.871232
2007-03-12 08:43:38 51°11.121 2°42.29 9.1371 3.585446 32.061698 -2.871232
2007-03-12 08:43:43 51°11.12 2°42.276 9.1353 3.576227 31.970104 -2.871232
2007-03-12 08:43:48 51°11.119 2°42.263 9.1374 3.579749 32.005935 -2.871232
2007-03-12 08:43:54 51°11.118 2°42.248 9.1452 3.56877 31.896035 -2.871232
2007-03-12 08:43:58 51°11.117 2°42.238 9.1338 3.587414 32.081256 -2.871232
2007-03-12 08:44:03 51°11.115 2°42.225 9.1345 3.587414 32.081256 -2.871232
2007-03-12 08:44:08 51°11.114 2°42.214 9.1277 3.573016 31.93821 -2.871232
2007-03-12 08:44:13 51°11.112 2°42.202 9.1289 3.582649 32.033061 -2.871232
2007-03-12 08:44:18 51°11.111 2°42.191 9.13 3.576642 31.973376 -2.871232
2007-03-12 08:44:23 51°11.109 2°42.18 9.1349 3.583996 32.043904 -2.871232
2007-03-12 08:44:28 51°11.108 2°42.169 9.1195 3.587932 32.08471 -2.871232
2007-03-12 08:44:34 51°11.106 2°42.157 9.1291 3.587932 32.08471 -2.871232
2007-03-12 08:44:38 51°11.105 2°42.149 9.1418 3.588554 32.095969 -2.871232
2007-03-12 08:44:43 51°11.103 2°42.14 9.15 3.568873 31.902114 -2.871232
2007-03-12 08:44:48 51°11.101 2°42.13 9.1359 3.583064 32.043098 -2.871232
2007-03-12 08:44:53 51°11.1 2°42.121 9.1291 3.591247 32.123588 -2.871232
2007-03-12 08:44:58 51°11.098 2°42.113 9.1424 3.591247 32.123588 -2.871232
2007-03-12 08:45:03 51°11.096 2°42.105 9.1454 3.588761 32.102265 -2.871232
2007-03-12 08:45:08 51°11.095 2°42.097 9.1423 3.593837 32.153578 -2.871232
2007-03-12 08:45:13 51°11.093 2°42.091 9.1452 3.591558 32.124134 -2.871232
2007-03-12 08:45:18 51°11.092 2°42.085 9.1433 3.589589 32.102029 -2.871232
2007-03-12 08:45:23 51°11.091 2°42.08 9.1418 3.591143 32.119167 -2.871232
2007-03-12 08:45:28 51°11.09 2°42.075 9.131 3.592593 32.133583 -2.871232
2007-03-12 08:45:33 51°11.09 2°42.072 9.1363 3.592593 32.133583 -2.871232
2007-03-12 08:45:38 51°11.089 2°42.069 9.1312 3.587932 32.08471 -2.871232
2007-03-12 08:45:43 51°11.089 2°42.066 9.1393 3.593422 32.138428 -2.871232
2007-03-12 08:45:48 51°11.089 2°42.064 9.1422 3.592179 32.126073 -2.871232
2007-03-12 08:45:54 51°11.089 2°42.061 9.1348 3.594561 32.149755 -2.871232
2007-03-12 08:45:58 51°11.089 2°42.06 9.1371 3.582856 32.03512 -2.871232
2007-03-12 08:46:03 51°11.089 2°42.057 9.1365 3.582856 32.03512 -2.871232
2007-03-12 08:46:08 51°11.09 2°42.055 9.1306 3.582028 32.029422 -2.871232
2007-03-12 08:46:13 51°11.09 2°42.053 9.1414 3.591868 32.128071 -2.871232
2007-03-12 08:46:18 51°11.09 2°42.051 9.138 3.591143 32.119167 -2.871232
2007-03-12 08:46:23 51°11.09 2°42.049 9.1389 3.595079 32.159147 -2.871232
2007-03-12 08:46:28 51°11.09 2°42.047 9.146 3.595079 32.159147 -2.871232
2007-03-12 08:46:33 51°11.09 2°42.045 9.1319 3.589693 32.107295 -2.871232
2007-03-12 08:46:38 51°11.091 2°42.043 9.1418 3.597151 32.181444 -2.871232
2007-03-12 08:46:43 51°11.091 2°42.041 9.1442 3.586896 32.078649 -2.871232
2007-03-12 08:46:48 51°11.091 2°42.039 9.1353 3.595805 32.168054 -2.871232
2007-03-12 08:46:53 51°11.091 2°42.037 9.1565 3.597151 32.178896 -2.871232
2007-03-12 08:46:58 51°11.092 2°42.035 9.1481 3.597151 32.178896 -2.871232
2007-03-12 08:47:03 51°11.092 2°42.033 9.1352 3.594251 32.146665 -2.871232
2007-03-12 08:47:08 51°11.092 2°42.031 9.1343 3.593318 32.138247 -2.871232
2007-03-12 08:47:13 51°11.093 2°42.029 9.1389 3.59684 32.172409 -2.871232
2007-03-12 08:47:18 51°11.093 2°42.027 9.1457 3.596322 32.166411 -2.871232
2007-03-12 08:47:23 51°11.093 2°42.025 9.1395 3.579853 32.001052 -2.871232
2007-03-12 08:47:28 51°11.094 2°42.023 9.1526 3.596426 32.164895 -2.871232
2007-03-12 08:47:33 51°11.094 2°42.021 9.1344 3.596426 32.164895 -2.871232
2007-03-12 08:47:38 51°11.094 2°42.019 9.1427 3.588968 32.093311 -2.871232
2007-03-12 08:47:43 51°11.094 2°42.017 9.1562 3.592801 32.13225 -2.871232
2007-03-12 08:47:48 51°11.095 2°42.015 9.1467 3.594147 32.146484 -2.871232
2007-03-12 08:47:53 51°11.095 2°42.013 9.1351 3.590107 32.108024 -2.871232
2007-03-12 08:47:58 51°11.096 2°42.012 9.1371 3.592904 32.134976 -2.871232
2007-03-12 08:48:03 51°11.096 2°42.01 9.1295 3.592904 32.134976 -2.871232
2007-03-12 08:48:08 51°11.096 2°42.008 9.1323 3.594665 32.155027 -2.871232
2007-03-12 08:48:14 51°11.097 2°42.006 9.142 3.59684 32.175806 -2.871232
2007-03-12 08:48:18 51°11.097 2°42.004 9.1298 3.594665 32.151633 -2.871232
2007-03-12 08:48:23 51°11.097 2°42.002 9.1457 3.596012 32.166718 -2.871232
2007-03-12 08:48:28 51°11.098 2°42 9.1429 3.596012 32.166718 -2.871232
2007-03-12 08:48:34 51°11.098 2°41.998 9.1352 3.594458 32.152119 -2.871232
2007-03-12 08:48:38 51°11.099 2°41.997 9.1352 3.596737 32.177324 -2.871232
2007-03-12 08:48:43 51°11.099 2°41.995 9.1384 3.59653 32.175264 -2.871232
2007-03-12 08:48:48 51°11.1 2°41.993 9.1391 3.598083 32.189864 -2.871232
2007-03-12 08:48:53 51°11.1 2°41.991 9.142 3.595908 32.165688 -2.871232
2007-03-12 08:48:58 51°11.1 2°41.99 9.1362 3.595908 32.165688 -2.871232
2007-03-12 08:49:03 51°11.1 2°41.988 9.1381 3.586482 32.071145 -2.871232
2007-03-12 08:49:08 51°11.101 2°41.986 9.1362 3.590211 32.109053 -2.871232
2007-03-12 08:49:13 51°11.101 2°41.985 9.1534 3.596737 32.173927 -2.871232
2007-03-12 08:49:18 51°11.102 2°41.983 9.1309 3.598705 32.192646 -2.871232
2007-03-12 08:49:23 51°11.102 2°41.981 9.1359 3.598187 32.188346 -2.871232
2007-03-12 08:49:28 51°11.103 2°41.979 9.1388 3.592075 32.13013 -2.871232
2007-03-12 08:49:33 51°11.103 2°41.978 9.1405 3.592075 32.13013 -2.871232
2007-03-12 08:49:38 51°11.103 2°41.976 9.1282 3.594976 32.160663 -2.871232
2007-03-12 08:49:43 51°11.104 2°41.975 9.1492 3.594665 32.156725 -2.871232
2007-03-12 08:49:48 51°11.104 2°41.973 9.1285 3.596322 32.172354 -2.871232
2007-03-12 08:49:54 51°11.105 2°41.971 9.1265 3.598809 32.195375 -2.871232
2007-03-12 08:49:58 51°11.105 2°41.97 9.1358 3.594872 32.157087 -2.871232
2007-03-12 08:50:03 51°11.105 2°41.968 9.1282 3.594872 32.157087 -2.871232
2007-03-12 08:50:08 51°11.106 2°41.966 9.1441 3.593008 32.13855 -2.871232
2007-03-12 08:50:14 51°11.106 2°41.964 9.1386 3.596322 32.170656 -2.871232
2007-03-12 08:50:18 51°11.107 2°41.963 9.1425 3.596426 32.172535 -2.871232
2007-03-12 08:50:23 51°11.107 2°41.962 9.1349 3.593319 32.145033 -2.871232
2007-03-12 08:50:28 51°11.108 2°41.96 9.1327 3.593319 32.145033 -2.871232
2007-03-12 08:50:34 51°11.108 2°41.958 9.136 3.598291 32.194474 -2.871232
2007-03-12 08:50:38 51°11.108 2°41.957 9.1299 3.595597 32.167692 -2.871232
2007-03-12 08:50:43 51°11.109 2°41.955 9.1337 3.592904 32.139217 -2.871232
2007-03-12 08:50:48 51°11.109 2°41.954 9.1283 3.59684 32.176655 -2.871232
2007-03-12 08:50:54 51°11.109 2°41.952 9.1333 3.596737 32.175625 -2.871232
2007-03-12 08:50:58 51°11.11 2°41.951 9.1346 3.597773 32.188474 -2.871232
2007-03-12 08:51:03 51°11.11 2°41.95 9.1371 3.597773 32.188474 -2.871232
2007-03-12 08:51:08 51°11.111 2°41.948 9.1375 3.588036 32.091668 -2.871232
2007-03-12 08:51:13 51°11.111 2°41.947 9.1416 3.593215 32.143155 -2.871232
2007-03-12 08:51:18 51°11.111 2°41.945 9.1416 3.589279 32.106566 -2.871232
2007-03-12 08:51:23 51°11.112 2°41.944 9.1404 3.591972 32.133341 -2.871232
2007-03-12 08:51:28 51°11.112 2°41.942 9.1432 3.597048 32.183812 -2.871232
2007-03-12 08:51:33 51°11.113 2°41.941 9.1458 3.597048 32.183812 -2.871232
2007-03-12 08:51:38 51°11.113 2°41.94 9.133 3.59798 32.192233 -2.871232
2007-03-12 08:51:43 51°11.114 2°41.938 9.1336 3.592283 32.133886 -2.871232
2007-03-12 08:51:48 51°11.114 2°41.937 9.1405 3.596737 32.176474 -2.871232
2007-03-12 08:51:53 51°11.114 2°41.935 9.1481 3.590936 32.117956 -2.871232
2007-03-12 08:51:58 51°11.115 2°41.934 9.1391 3.590936 32.117956 -2.871232
2007-03-12 08:52:03 51°11.115 2°41.933 9.1478 3.595183 32.159328 -2.871232
2007-03-12 08:52:08 51°11.115 2°41.931 9.1393 3.593422 32.139276 -2.871232
2007-03-12 08:52:13 51°11.116 2°41.93 9.1354 3.597773 32.185925 -2.871232
2007-03-12 08:52:18 51°11.116 2°41.928 9.1336 3.591558 32.124982 -2.871232
2007-03-12 08:52:23 51°11.117 2°41.927 9.1342 3.59539 32.161387 -2.871232
2007-03-12 08:52:28 51°11.117 2°41.926 9.1369 3.597358 32.180106 -2.871232
2007-03-12 08:52:34 51°11.118 2°41.924 9.1393 3.597358 32.180106 -2.871232
2007-03-12 08:52:38 51°11.118 2°41.923 9.1314 3.598291 32.189376 -2.871232
2007-03-12 08:52:43 51°11.118 2°41.922 9.1398 3.594354 32.151089 -2.871232
2007-03-12 08:52:48 51°11.119 2°41.92 9.1447 3.59798 32.188834 -2.871232
2007-03-12 08:52:53 51°11.119 2°41.919 9.1366 3.593422 32.142669 -2.871232
2007-03-12 08:52:58 51°11.12 2°41.918 9.134 3.595079 32.157449 -2.871232
2007-03-12 08:53:03 51°11.12 2°41.916 9.1352 3.595079 32.157449 -2.871232
2007-03-12 08:53:08 51°11.121 2°41.915 9.1345 3.593836 32.14594 -2.871232
2007-03-12 08:53:13 51°11.121 2°41.914 9.1328 3.589589 32.103723 -2.871232
2007-03-12 08:53:18 51°11.122 2°41.913 9.1354 3.594458 32.150422 -2.871232
2007-03-12 08:53:23 51°11.122 2°41.911 9.1335 3.597358 32.180106 -2.871232
2007-03-12 08:53:28 51°11.123 2°41.91 9.1382 3.593422 32.143518 -2.871232
2007-03-12 08:53:33 51°11.123 2°41.909 9.1352 3.593422 32.143518 -2.871232
2007-03-12 08:53:38 51°11.124 2°41.907 9.128 3.58586 32.0692 -2.871232
2007-03-12 08:53:43 51°11.124 2°41.906 9.1342 3.591143 32.123406 -2.871232
2007-03-12 08:53:48 51°11.124 2°41.905 9.1461 3.594562 32.157392 -2.871232
2007-03-12 08:53:53 51°11.125 2°41.904 9.1513 3.594872 32.160482 -2.871232
2007-03-12 08:53:58 51°11.125 2°41.903 9.1327 3.594872 32.160482 -2.871232
2007-03-12 08:54:03 51°11.126 2°41.901 9.1503 3.592801 32.139035 -2.871232
2007-03-12 08:54:08 51°11.126 2°41.9 9.1399 3.59135 32.126314 -2.871232
2007-03-12 08:54:13 51°11.127 2°41.898 9.1372 3.595183 32.164421 -2.871232
2007-03-12 08:54:18 51°11.127 2°41.895 9.1418 3.593836 32.149334 -2.871232
2007-03-12 08:54:23 51°11.127 2°41.892 9.1521 3.594354 32.151089 -2.871232
2007-03-12 08:54:28 51°11.127 2°41.888 9.1462 3.595701 32.163628 -2.871232
2007-03-12 08:54:33 51°11.127 2°41.883 9.149 3.595701 32.163628 -2.871232
2007-03-12 08:54:38 51°11.126 2°41.877 9.141 3.595597 32.160901 -2.871232
2007-03-12 08:54:43 51°11.125 2°41.87 9.1393 3.58845 32.092398 -2.871232
2007-03-12 08:54:48 51°11.124 2°41.863 9.1476 3.597773 32.184226 -2.871232
2007-03-12 08:54:54 51°11.122 2°41.852 9.1386 3.591557 32.119048 -2.871232
2007-03-12 08:54:58 51°11.12 2°41.844 9.1421 3.59539 32.156295 -2.871232
2007-03-12 08:55:03 51°11.118 2°41.834 9.1411 3.59539 32.156295 -2.871232
2007-03-12 08:55:08 51°11.115 2°41.821 9.144 3.595701 32.159384 -2.871232
2007-03-12 08:55:14 51°11.111 2°41.805 9.1438 3.596012 32.164171 -2.871232
2007-03-12 08:55:18 51°11.108 2°41.793 9.1479 3.599016 32.193187 -2.871232
2007-03-12 08:55:23 51°11.104 2°41.778 9.1496 3.596737 32.17053 -2.871232
2007-03-12 08:55:28 51°11.1 2°41.761 9.1471 3.599637 32.201066 -2.871232
2007-03-12 08:55:33 51°11.095 2°41.743 9.1471 3.599637 32.201066 -2.871232
2007-03-12 08:55:38 51°11.089 2°41.724 9.1499 3.598601 32.190766 -2.871232
2007-03-12 08:55:43 51°11.084 2°41.704 9.1518 3.59943 32.198156 -2.871232
2007-03-12 08:55:48 51°11.078 2°41.683 9.1487 3.580888 32.013031 -2.871232
2007-03-12 08:55:53 51°11.072 2°41.662 9.149 3.598808 32.189428 -2.871232
2007-03-12 08:55:59 51°11.064 2°41.635 9.1418 3.599844 32.200576 -2.871232
2007-03-12 08:56:03 51°11.059 2°41.617 9.1345 3.599844 32.200576 -2.871232
2007-03-12 08:56:08 51°11.052 2°41.593 9.1288 3.59539 32.156295 -2.871232
2007-03-12 08:56:13 51°11.045 2°41.569 9.1416 3.598291 32.185978 -2.871232
2007-03-12 08:56:18 51°11.038 2°41.545 9.1397 3.593629 32.138791 -2.871232
2007-03-12 08:56:23 51°11.031 2°41.519 9.14 3.600362 32.204876 -2.871232
2007-03-12 08:56:28 51°11.023 2°41.493 9.1424 3.597255 32.17483 -2.871232
2007-03-12 08:56:34 51°11.014 2°41.462 9.1405 3.597255 32.17483 -2.871232
2007-03-12 08:56:38 51°11.008 2°41.441 9.1346 3.597565 32.182166 -2.871232
2007-03-12 08:56:43 51°11 2°41.414 9.1356 3.600984 32.218707 -2.871232
2007-03-12 08:56:48 51°10.992 2°41.386 9.1542 3.600052 32.208586 -2.871232
2007-03-12 08:56:54 51°10.983 2°41.354 9.1497 3.600362 32.210826 -2.871232
2007-03-12 08:56:58 51°10.976 2°41.332 9.1542 3.583064 32.036333 -2.871232
2007-03-12 08:57:03 51°10.969 2°41.304 9.161 3.583064 32.036333 -2.871232
2007-03-12 08:57:08 51°10.961 2°41.277 9.1645 3.597669 32.182347 -2.871232
2007-03-12 08:57:14 51°10.953 2°41.243 9.1554 3.601087 32.219738 -2.871232
2007-03-12 08:57:18 51°10.947 2°41.221 9.1667 3.603263 32.237969 -2.871232
2007-03-12 08:57:23 51°10.94 2°41.192 9.1796 3.597358 32.17586 -2.871232
2007-03-12 08:57:28 51°10.934 2°41.163 9.1733 3.597358 32.17586 -2.871232
2007-03-12 08:57:33 51°10.928 2°41.135 9.1777 3.600777 32.205596 -2.871232
2007-03-12 08:57:38 51°10.922 2°41.106 9.19 3.60492 32.243389 -2.871232
2007-03-12 08:57:43 51°10.917 2°41.077 9.1812 3.605438 32.246837 -2.871232
2007-03-12 08:57:48 51°10.912 2°41.047 9.1931 3.603884 32.229689 -2.871232
2007-03-12 08:57:54 51°10.905 2°41.012 9.1822 3.610617 32.289818 -2.871232
2007-03-12 08:57:58 51°10.902 2°40.989 9.173 3.602434 32.202531 -2.871232
2007-03-12 08:58:03 51°10.897 2°40.959 9.1679 3.602434 32.202531 -2.871232
2007-03-12 08:58:08 51°10.892 2°40.93 9.1742 3.603987 32.215422 -2.871232
2007-03-12 08:58:13 51°10.887 2°40.9 9.1719 3.607717 32.248227 -2.871232
2007-03-12 08:58:18 51°10.883 2°40.871 9.1661 3.606681 32.233685 -2.871232
2007-03-12 08:58:23 51°10.878 2°40.841 9.1792 3.610617 32.272794 -2.871232
2007-03-12 08:58:28 51°10.873 2°40.812 9.1727 3.605541 32.227462 -2.871232
2007-03-12 08:58:33 51°10.868 2°40.782 9.1671 3.605541 32.227462 -2.871232
2007-03-12 08:58:38 51°10.863 2°40.753 9.1662 3.611653 32.293303 -2.871232
2007-03-12 08:58:43 51°10.858 2°40.723 9.1613 3.613932 32.318513 -2.871232
2007-03-12 08:58:48 51°10.854 2°40.694 9.175 3.613621 32.317128 -2.871232
2007-03-12 08:58:53 51°10.849 2°40.664 9.1809 3.604713 32.228575 -2.871232
2007-03-12 08:58:58 51°10.844 2°40.635 9.1779 3.61331 32.312334 -2.871232
2007-03-12 08:59:03 51°10.839 2°40.605 9.1734 3.61331 32.312334 -2.871232
2007-03-12 08:59:08 51°10.834 2°40.576 9.1795 3.609788 32.279877 -2.871232
2007-03-12 08:59:13 51°10.829 2°40.547 9.1741 3.609063 32.27352 -2.871232
2007-03-12 08:59:18 51°10.824 2°40.517 9.1855 3.607406 32.257895 -2.871232
2007-03-12 08:59:23 51°10.819 2°40.488 9.1795 3.612067 32.299976 -2.871232
2007-03-12 08:59:28 51°10.815 2°40.458 9.1811 3.612067 32.299976 -2.871232
2007-03-12 08:59:34 51°10.809 2°40.422 9.1888 3.609788 32.274769 -2.871232
2007-03-12 08:59:38 51°10.805 2°40.399 9.1909 3.608753 32.264474 -2.871232
2007-03-12 08:59:43 51°10.8 2°40.369 9.1995 3.611135 32.2856 -2.871232
2007-03-12 08:59:48 51°10.795 2°40.34 9.1895 3.606577 32.238605 -2.871232
2007-03-12 08:59:54 51°10.789 2°40.304 9.1906 3.605438 32.226433 -2.871232
2007-03-12 08:59:58 51°10.785 2°40.281 9.195 3.606991 32.240172 -2.871232
2007-03-12 09:00:03 51°10.781 2°40.251 9.2007 3.606991 32.240172 -2.871232
2007-03-12 09:00:08 51°10.776 2°40.222 9.1978 3.608131 32.248093 -2.871232
2007-03-12 09:00:13 51°10.771 2°40.192 9.2125 3.603884 32.201657 -2.871232
2007-03-12 09:00:18 51°10.766 2°40.163 9.201 3.603469 32.194996 -2.871232
2007-03-12 09:00:23 51°10.761 2°40.133 9.2079 3.613725 32.296864 -2.871232
2007-03-12 09:00:28 51°10.757 2°40.104 9.1952 3.611031 32.267555 -2.871232
2007-03-12 09:00:33 51°10.752 2°40.074 9.1977 3.611031 32.267555 -2.871232
2007-03-12 09:00:38 51°10.747 2°40.045 9.2056 3.611756 32.273057 -2.871232
2007-03-12 09:00:43 51°10.743 2°40.015 9.2048 3.594768 32.100142 -2.871232
2007-03-12 09:00:48 51°10.738 2°39.985 9.1926 3.606162 32.21071 -2.871232
2007-03-12 09:00:54 51°10.732 2°39.95 9.2 3.612378 32.272428 -2.871232
2007-03-12 09:00:58 51°10.729 2°39.926 9.1951 3.612378 32.272428 -2.871232
2007-03-12 09:01:03 51°10.724 2°39.897 9.193 3.607716 32.228685 -2.871232
2007-03-12 09:01:08 51°10.719 2°39.867 9.2068 3.615589 32.308579 -2.871232
2007-03-12 09:01:14 51°10.713 2°39.832 9.207 3.609684 32.24738 -2.871232
2007-03-12 09:01:18 51°10.709 2°39.808 9.2061 3.612171 32.272071 -2.871232
2007-03-12 09:01:23 51°10.705 2°39.779 9.2033 3.61072 32.258518 -2.871232
2007-03-12 09:01:28 51°10.7 2°39.749 9.1954 3.607095 32.224211 -2.871232
2007-03-12 09:01:34 51°10.694 2°39.714 9.1986 3.607095 32.224211 -2.871232
2007-03-12 09:01:38 51°10.691 2°39.69 9.1965 3.602951 32.184764 -2.871232
2007-03-12 09:01:43 51°10.686 2°39.66 9.2044 3.612585 32.278737 -2.871232
2007-03-12 09:01:48 51°10.681 2°39.631 9.2109 3.595493 32.106492 -2.871232
2007-03-12 09:01:54 51°10.676 2°39.596 9.2043 3.614139 32.289918 -2.871232
2007-03-12 09:01:58 51°10.672 2°39.572 9.2042 3.61186 32.269835 -2.871232
2007-03-12 09:02:03 51°10.667 2°39.542 9.208 3.61186 32.269835 -2.871232
2007-03-12 09:02:08 51°10.662 2°39.513 9.1934 3.611445 32.265719 -2.871232
2007-03-12 09:02:13 51°10.658 2°39.483 9.2005 3.606577 32.21737 -2.871232
2007-03-12 09:02:18 51°10.653 2°39.454 9.1936 3.609995 32.248767 -2.871232
2007-03-12 09:02:23 51°10.648 2°39.425 9.215 3.608338 32.232309 -2.871232
2007-03-12 09:02:28 51°10.643 2°39.395 9.2033 3.617246 32.318232 -2.871232
2007-03-12 09:02:34 51°10.638 2°39.36 9.1967 3.617246 32.318232 -2.871232
2007-03-12 09:02:38 51°10.634 2°39.336 9.2081 3.616314 32.309823 -2.871232
2007-03-12 09:02:43 51°10.629 2°39.306 9.2069 3.608338 32.234007 -2.871232
2007-03-12 09:02:48 51°10.625 2°39.277 9.21 3.613207 32.28321 -2.871232
2007-03-12 09:02:53 51°10.62 2°39.247 9.2207 3.605334 32.202482 -2.871232
2007-03-12 09:02:58 51°10.615 2°39.218 9.2021 3.605334 32.202482 -2.871232
2007-03-12 09:03:03 51°10.611 2°39.188 9.2083 3.612481 32.271756 -2.871232
2007-03-12 09:03:08 51°10.606 2°39.159 9.2066 3.605334 32.202482 -2.871232
2007-03-12 09:03:13 51°10.601 2°39.129 9.202 3.609892 32.246889 -2.871232
2007-03-12 09:03:18 51°10.596 2°39.099 9.2035 3.611135 32.256684 -2.871232
2007-03-12 09:03:23 51°10.591 2°39.07 9.2067 3.613414 32.275914 -2.871232
2007-03-12 09:03:28 51°10.587 2°39.04 9.2119 3.612067 32.262542 -2.871232
2007-03-12 09:03:33 51°10.582 2°39.011 9.2081 3.612067 32.262542 -2.871232
2007-03-12 09:03:38 51°10.577 2°38.981 9.2152 3.597979 32.122704 -2.871232
2007-03-12 09:03:43 51°10.572 2°38.951 9.2079 3.604091 32.185053 -2.871232
2007-03-12 09:03:48 51°10.567 2°38.922 9.2079 3.612999 32.2752 -2.871232
2007-03-12 09:03:54 51°10.562 2°38.886 9.218 3.599533 32.141509 -2.871232
2007-03-12 09:03:58 51°10.558 2°38.863 9.2214 3.605644 32.201326 -2.871232
2007-03-12 09:04:03 51°10.554 2°38.833 9.2192 3.605644 32.201326 -2.871232
2007-03-12 09:04:08 51°10.55 2°38.803 9.2083 3.604401 32.18729 -2.871232
2007-03-12 09:04:14 51°10.545 2°38.767 9.21 3.614242 32.283292 -2.871232
2007-03-12 09:04:18 51°10.542 2°38.743 9.2145 3.60668 32.206519 -2.871232
2007-03-12 09:04:23 51°10.538 2°38.714 9.2143 3.612896 32.265671 -2.871232
2007-03-12 09:04:28 51°10.534 2°38.684 9.212 3.612896 32.265671 -2.871232
2007-03-12 09:04:33 51°10.53 2°38.654 9.2136 3.609373 32.22901 -2.871232
2007-03-12 09:04:38 51°10.527 2°38.624 9.2138 3.604401 32.17712 -2.871232
2007-03-12 09:04:43 51°10.523 2°38.594 9.2175 3.610202 32.238934 -2.871232
2007-03-12 09:04:48 51°10.52 2°38.564 9.2178 3.608752 32.225387 -2.871232
2007-03-12 09:04:54 51°10.516 2°38.528 9.2264 3.611135 32.249038 -2.871232
2007-03-12 09:04:58 51°10.513 2°38.504 9.2179 3.614035 32.278685 -2.871232
2007-03-12 09:05:03 51°10.51 2°38.473 9.2119 3.614035 32.278685 -2.871232
2007-03-12 09:05:08 51°10.506 2°38.443 9.2164 3.613931 32.278506 -2.871232
2007-03-12 09:05:13 51°10.503 2°38.413 9.2157 3.614139 32.279713 -2.871232
2007-03-12 09:05:18 51°10.5 2°38.383 9.2221 3.616107 32.295003 -2.871232
2007-03-12 09:05:23 51°10.496 2°38.353 9.2224 3.596114 32.094905 -2.871232
2007-03-12 09:05:28 51°10.493 2°38.323 9.214 3.601812 32.151425 -2.871232
2007-03-12 09:05:33 51°10.489 2°38.293 9.2217 3.601812 32.151425 -2.871232
2007-03-12 09:05:38 51°10.486 2°38.262 9.2271 3.610927 32.244434 -2.871232
2007-03-12 09:05:43 51°10.483 2°38.232 9.2204 3.615278 32.287626 -2.871232
2007-03-12 09:05:48 51°10.479 2°38.202 9.2223 3.614553 32.279577 -2.871232
2007-03-12 09:05:53 51°10.476 2°38.172 9.225 3.612067 32.253197 -2.871232
2007-03-12 09:05:58 51°10.473 2°38.142 9.2185 3.607405 32.207779 -2.871232
2007-03-12 09:06:03 51°10.469 2°38.112 9.214 3.607405 32.207779 -2.871232
2007-03-12 09:06:08 51°10.466 2°38.081 9.2164 3.611238 32.244971 -2.871232
2007-03-12 09:06:13 51°10.462 2°38.051 9.2148 3.608441 32.215515 -2.871232
2007-03-12 09:06:18 51°10.459 2°38.021 9.22 3.614553 32.274477 -2.871232
2007-03-12 09:06:23 51°10.455 2°37.991 9.2128 3.611652 32.245688 -2.871232
2007-03-12 09:06:28 51°10.452 2°37.96 9.223 3.611652 32.245688 -2.871232
2007-03-12 09:06:34 51°10.447 2°37.924 9.2285 3.615174 32.282347 -2.871232
2007-03-12 09:06:38 51°10.444 2°37.9 9.2185 3.615692 32.290039 -2.871232
2007-03-12 09:06:43 51°10.441 2°37.869 9.2162 3.615278 32.287626 -2.871232
2007-03-12 09:06:48 51°10.437 2°37.839 9.2145 3.613724 32.272199 -2.871232
2007-03-12 09:06:53 51°10.434 2°37.809 9.2253 3.618282 32.318305 -2.871232
2007-03-12 09:06:58 51°10.43 2°37.779 9.225 3.615382 32.288654 -2.871232
2007-03-12 09:07:03 51°10.426 2°37.749 9.2152 3.615382 32.288654 -2.871232
2007-03-12 09:07:08 51°10.423 2°37.718 9.2151 3.611445 32.247028 -2.871232
2007-03-12 09:07:13 51°10.42 2°37.688 9.2245 3.614864 32.283512 -2.871232
2007-03-12 09:07:18 51°10.417 2°37.658 9.2137 3.615278 32.288476 -2.871232
2007-03-12 09:07:23 51°10.414 2°37.627 9.2226 3.594871 32.082575 -2.871232
2007-03-12 09:07:28 51°10.411 2°37.597 9.2195 3.622529 32.355371 -2.871232
2007-03-12 09:07:33 51°10.408 2°37.567 9.2167 3.622529 32.355371 -2.871232
2007-03-12 09:07:38 51°10.406 2°37.536 9.2122 3.620458 32.33565 -2.871232
2007-03-12 09:07:43 51°10.403 2°37.506 9.2339 3.617143 32.305289 -2.871232
2007-03-12 09:07:48 51°10.402 2°37.475 9.2197 3.620354 32.336324 -2.871232
2007-03-12 09:07:54 51°10.4 2°37.439 9.227 3.623565 32.365658 -2.871232
2007-03-12 09:07:58 51°10.399 2°37.414 9.2256 3.624705 32.376975 -2.871232
2007-03-12 09:08:03 51°10.398 2°37.383 9.2218 3.624705 32.376975 -2.871232
2007-03-12 09:08:08 51°10.397 2°37.353 9.213 3.622529 32.357075 -2.871232
2007-03-12 09:08:14 51°10.396 2°37.316 9.2213 3.622944 32.36119 -2.871232
2007-03-12 09:08:18 51°10.395 2°37.291 9.2063 3.622219 32.351433 -2.871232
2007-03-12 09:08:23 51°10.395 2°37.261 9.2221 3.618489 32.313555 -2.871232
2007-03-12 09:08:28 51°10.394 2°37.23 9.2098 3.618489 32.313555 -2.871232
2007-03-12 09:08:34 51°10.393 2°37.193 9.2109 3.623151 32.358135 -2.871232
2007-03-12 09:08:38 51°10.393 2°37.169 9.2064 3.625016 32.379209 -2.871232
2007-03-12 09:08:43 51°10.392 2°37.138 9.2085 3.623876 32.370449 -2.871232
2007-03-12 09:08:48 51°10.392 2°37.108 9.2137 3.615071 32.286419 -2.871232
2007-03-12 09:08:53 51°10.393 2°37.077 9.2113 3.621701 32.354809 -2.871232
2007-03-12 09:08:58 51°10.395 2°37.047 9.204 3.623669 32.375212 -2.871232
2007-03-12 09:09:03 51°10.398 2°37.017 9.2367 3.623669 32.375212 -2.871232
2007-03-12 09:09:08 51°10.402 2°36.987 9.2118 3.622115 32.36063 -2.871232
2007-03-12 09:09:13 51°10.408 2°36.958 9.22 3.620561 32.345196 -2.871232
2007-03-12 09:09:18 51°10.415 2°36.93 9.2111 3.623462 32.373154 -2.871232
2007-03-12 09:09:23 51°10.423 2°36.903 9.222 3.624705 32.385502 -2.871232
2007-03-12 09:09:28 51°10.432 2°36.876 9.2166 3.621183 32.349665 -2.871232
2007-03-12 09:09:34 51°10.444 2°36.846 9.2148 3.621183 32.349665 -2.871232
2007-03-12 09:09:38 51°10.452 2°36.826 9.2008 3.619111 32.324832 -2.871232
2007-03-12 09:09:43 51°10.463 2°36.802 9.2004 3.626259 32.394966 -2.871232
2007-03-12 09:09:48 51°10.474 2°36.778 9.1998 3.625844 32.391704 -2.871232
2007-03-12 09:09:54 51°10.488 2°36.751 9.2168 3.622115 32.353812 -2.871232
2007-03-12 09:09:58 51°10.497 2°36.732 9.1917 3.622115 32.353812 -2.871232
2007-03-12 09:10:03 51°10.509 2°36.71 9.1925 3.620872 32.341468 -2.871232
2007-03-12 09:10:08 51°10.521 2°36.688 9.2054 3.622633 32.361513 -2.871232
2007-03-12 09:10:14 51°10.538 2°36.666 9.2032 3.621701 32.356514 -2.871232
2007-03-12 09:10:18 51°10.549 2°36.651 9.1966 3.613828 32.283429 -2.871232